SZN6767 KMCO-GOBD
Flight info
| Callsign | SZN6767 |
|---|---|
| Flight time | 7h 0m |
| Altitude | 37000 |
| Route | MZULO3 LENDS M203 SNAGY 2960N 2957N 2950N 2945N 2842N 2740N 2434N ULTEM UR976 LUMPO R976 LIGOV |
| Aircraft | A339/H-SADE1E2E3GHIJ3J5M1P2RWXY/LB2D1 |
Departure
| Time | 2026-04-25 11:05 |
|---|---|
| Airport | Orlando International Airport (KMCO) |
Arrival
| Time | 2026-04-25 18:05 |
|---|---|
| Airport | Blaise Diagne International Airport (GOBD) |
| Time | Latitude | Longitude | Altitude | Speed | Heading |
|---|---|---|---|---|---|
| 2026-04-25 09:38 | 28.42618 | -81.30006 | 100 ft | 0 kts | 240° |
| 2026-04-25 10:49 | 28.42622 | -81.30002 | 101 ft | 4 kts | 250° |
| 2026-04-25 10:49 | 28.42632 | -81.29977 | 100 ft | 4 kts | 250° |
| 2026-04-25 10:49 | 28.42640 | -81.29949 | 100 ft | 4 kts | 268° |
| 2026-04-25 10:49 | 28.42639 | -81.29919 | 100 ft | 4 kts | 279° |
| 2026-04-25 10:50 | 28.42638 | -81.29893 | 100 ft | 4 kts | 291° |
| 2026-04-25 10:50 | 28.42638 | -81.29878 | 99 ft | 4 kts | 353° |
| 2026-04-25 10:50 | 28.42613 | -81.29878 | 100 ft | 4 kts | 8° |
| 2026-04-25 10:50 | 28.42591 | -81.29881 | 99 ft | 1 kts | 360° |
| 2026-04-25 10:53 | 28.42648 | -81.29882 | 101 ft | 15 kts | 360° |
| 2026-04-25 10:54 | 28.42755 | -81.29883 | 102 ft | 16 kts | 359° |
| 2026-04-25 10:54 | 28.42830 | -81.29883 | 102 ft | 16 kts | 360° |
| 2026-04-25 10:54 | 28.42894 | -81.29876 | 101 ft | 4 kts | 19° |
| 2026-04-25 10:54 | 28.42901 | -81.29867 | 101 ft | 0 kts | 41° |
| 2026-04-25 10:55 | 28.42918 | -81.29839 | 103 ft | 13 kts | 53° |
| 2026-04-25 10:55 | 28.43011 | -81.29806 | 102 ft | 14 kts | 352° |
| 2026-04-25 10:56 | 28.43100 | -81.29810 | 101 ft | 15 kts | 4° |
| 2026-04-25 10:56 | 28.43228 | -81.29802 | 102 ft | 23 kts | 2° |
| 2026-04-25 10:56 | 28.43417 | -81.29805 | 101 ft | 31 kts | 1° |
| 2026-04-25 10:56 | 28.43482 | -81.29806 | 102 ft | 5 kts | 359° |
| 2026-04-25 10:57 | 28.43534 | -81.29789 | 103 ft | 9 kts | 42° |
| 2026-04-25 10:57 | 28.43548 | -81.29727 | 103 ft | 8 kts | 87° |
| 2026-04-25 10:57 | 28.43549 | -81.29716 | 103 ft | 0 kts | 87° |
| 2026-04-25 11:02 | 28.43550 | -81.29673 | 104 ft | 12 kts | 88° |
| 2026-04-25 11:02 | 28.43519 | -81.29598 | 103 ft | 10 kts | 143° |
| 2026-04-25 11:02 | 28.43456 | -81.29584 | 105 ft | 9 kts | 179° |
| 2026-04-25 11:03 | 28.43407 | -81.29584 | 106 ft | 0 kts | 181° |
| 2026-04-25 11:04 | 28.43399 | -81.29585 | 106 ft | 10 kts | 181° |
| 2026-04-25 11:04 | 28.43059 | -81.29581 | 104 ft | 87 kts | 179° |
| 2026-04-25 11:04 | 28.42219 | -81.29571 | 102 ft | 151 kts | 179° |
| 2026-04-25 11:04 | 28.41442 | -81.29564 | 152 ft | 180 kts | 179° |
| 2026-04-25 11:05 | 28.39754 | -81.29539 | 904 ft | 181 kts | 176° |
| 2026-04-25 11:05 | 28.38557 | -81.29391 | 1807 ft | 167 kts | 165° |
| 2026-04-25 11:05 | 28.37480 | -81.28845 | 2381 ft | 178 kts | 146° |
| 2026-04-25 11:05 | 28.36416 | -81.27980 | 2695 ft | 198 kts | 145° |
| 2026-04-25 11:06 | 28.35320 | -81.26904 | 2930 ft | 221 kts | 127° |
| 2026-04-25 11:06 | 28.34718 | -81.25227 | 3164 ft | 242 kts | 99° |
| 2026-04-25 11:06 | 28.34834 | -81.23243 | 3380 ft | 262 kts | 81° |
| 2026-04-25 11:06 | 28.35086 | -81.21172 | 3836 ft | 267 kts | 77° |
| 2026-04-25 11:07 | 28.35686 | -81.19167 | 4443 ft | 268 kts | 69° |
| 2026-04-25 11:07 | 28.36334 | -81.17176 | 5037 ft | 270 kts | 69° |
| 2026-04-25 11:07 | 28.36983 | -81.15192 | 5631 ft | 271 kts | 69° |
| 2026-04-25 11:07 | 28.37645 | -81.13178 | 6240 ft | 273 kts | 68° |
| 2026-04-25 11:08 | 28.38316 | -81.11149 | 6779 ft | 276 kts | 69° |
| 2026-04-25 11:08 | 28.38995 | -81.09091 | 7271 ft | 281 kts | 68° |
| 2026-04-25 11:08 | 28.39681 | -81.06998 | 7800 ft | 285 kts | 69° |
| 2026-04-25 11:08 | 28.40373 | -81.04871 | 8325 ft | 289 kts | 69° |
| 2026-04-25 11:09 | 28.41076 | -81.02711 | 8869 ft | 293 kts | 69° |
| 2026-04-25 11:09 | 28.41781 | -81.00550 | 9388 ft | 297 kts | 69° |
| 2026-04-25 11:09 | 28.42507 | -80.98331 | 9919 ft | 302 kts | 68° |
| 2026-04-25 11:09 | 28.43251 | -80.96061 | 10239 ft | 314 kts | 68° |
| 2026-04-25 11:10 | 28.44034 | -80.93678 | 10396 ft | 331 kts | 69° |
| 2026-04-25 11:10 | 28.44311 | -80.92835 | 10448 ft | 336 kts | 69° |
| 2026-04-25 11:10 | 28.45713 | -80.88558 | 10918 ft | 354 kts | 69° |
| 2026-04-25 11:10 | 28.46576 | -80.85922 | 11414 ft | 357 kts | 69° |
| 2026-04-25 11:11 | 28.47414 | -80.83258 | 11890 ft | 361 kts | 72° |
| 2026-04-25 11:11 | 28.47952 | -80.80450 | 12383 ft | 364 kts | 82° |
| 2026-04-25 11:11 | 28.48243 | -80.77580 | 12869 ft | 368 kts | 83° |
| 2026-04-25 11:11 | 28.48550 | -80.74672 | 13367 ft | 371 kts | 83° |
| 2026-04-25 11:12 | 28.48869 | -80.71751 | 13857 ft | 374 kts | 83° |
| 2026-04-25 11:12 | 28.49196 | -80.68808 | 14306 ft | 376 kts | 83° |
| 2026-04-25 11:12 | 28.49526 | -80.65847 | 14707 ft | 379 kts | 83° |
| 2026-04-25 11:12 | 28.49858 | -80.62855 | 15149 ft | 382 kts | 83° |
| 2026-04-25 11:13 | 28.50188 | -80.59885 | 15586 ft | 384 kts | 83° |
| 2026-04-25 11:13 | 28.50522 | -80.56858 | 16042 ft | 387 kts | 83° |
| 2026-04-25 11:13 | 28.50858 | -80.53809 | 16481 ft | 390 kts | 83° |
| 2026-04-25 11:13 | 28.51195 | -80.50740 | 16914 ft | 392 kts | 83° |
| 2026-04-25 11:14 | 28.51535 | -80.47644 | 17355 ft | 395 kts | 83° |
| 2026-04-25 11:14 | 28.51875 | -80.44529 | 17796 ft | 398 kts | 83° |
| 2026-04-25 11:14 | 28.52102 | -80.42455 | 18085 ft | 400 kts | 82° |
| 2026-04-25 11:14 | 28.52445 | -80.39308 | 18485 ft | 402 kts | 83° |
| 2026-04-25 11:15 | 28.52790 | -80.36142 | 18896 ft | 404 kts | 82° |
| 2026-04-25 11:15 | 28.53136 | -80.32958 | 19284 ft | 407 kts | 82° |
| 2026-04-25 11:15 | 28.53599 | -80.29779 | 19668 ft | 408 kts | 76° |
| 2026-04-25 11:15 | 28.54451 | -80.26700 | 20072 ft | 409 kts | 67° |
| 2026-04-25 11:16 | 28.56751 | -80.20736 | 20882 ft | 414 kts | 65° |
| 2026-04-25 11:16 | 28.57904 | -80.17716 | 21296 ft | 416 kts | 65° |
| 2026-04-25 11:16 | 28.59039 | -80.14724 | 21684 ft | 418 kts | 65° |
| 2026-04-25 11:17 | 28.60192 | -80.11676 | 22104 ft | 420 kts | 65° |
| 2026-04-25 11:17 | 28.61353 | -80.08605 | 22508 ft | 423 kts | 65° |
| 2026-04-25 11:17 | 28.62517 | -80.05524 | 22924 ft | 425 kts | 65° |
| 2026-04-25 11:17 | 28.63691 | -80.02417 | 23328 ft | 428 kts | 65° |
| 2026-04-25 11:18 | 28.64869 | -79.99295 | 23707 ft | 430 kts | 65° |
| 2026-04-25 11:18 | 28.66053 | -79.96156 | 24068 ft | 432 kts | 65° |
| 2026-04-25 11:18 | 28.67243 | -79.92999 | 24434 ft | 434 kts | 66° |
| 2026-04-25 11:18 | 28.68434 | -79.89836 | 24773 ft | 436 kts | 66° |
| 2026-04-25 11:19 | 28.69633 | -79.86649 | 25134 ft | 437 kts | 66° |
| 2026-04-25 11:19 | 28.70818 | -79.83497 | 25479 ft | 439 kts | 66° |
| 2026-04-25 11:19 | 28.72021 | -79.80293 | 25833 ft | 441 kts | 66° |
| 2026-04-25 11:19 | 28.73231 | -79.77069 | 26173 ft | 443 kts | 66° |
| 2026-04-25 11:20 | 28.74444 | -79.73834 | 26524 ft | 445 kts | 66° |
| 2026-04-25 11:20 | 28.75665 | -79.70573 | 26841 ft | 447 kts | 66° |
| 2026-04-25 11:20 | 28.76889 | -79.67305 | 27184 ft | 449 kts | 66° |
| 2026-04-25 11:20 | 28.78116 | -79.64023 | 27509 ft | 451 kts | 66° |
| 2026-04-25 11:21 | 28.79349 | -79.60722 | 27825 ft | 453 kts | 66° |
| 2026-04-25 11:21 | 28.80619 | -79.57428 | 28127 ft | 454 kts | 63° |
| 2026-04-25 11:21 | 28.82193 | -79.54302 | 28429 ft | 455 kts | 55° |
| 2026-04-25 11:21 | 28.84043 | -79.51365 | 28728 ft | 457 kts | 52° |
| 2026-04-25 11:22 | 28.85916 | -79.48421 | 29031 ft | 459 kts | 53° |
| 2026-04-25 11:22 | 28.87152 | -79.46463 | 29227 ft | 460 kts | 53° |
| 2026-04-25 11:22 | 28.89650 | -79.42487 | 29631 ft | 462 kts | 53° |
| 2026-04-25 11:22 | 28.91501 | -79.39535 | 29917 ft | 464 kts | 53° |
| 2026-04-25 11:23 | 28.93392 | -79.36517 | 30192 ft | 466 kts | 53° |
| 2026-04-25 11:23 | 28.95281 | -79.33503 | 30471 ft | 468 kts | 53° |
| 2026-04-25 11:23 | 28.97179 | -79.30471 | 30737 ft | 470 kts | 53° |
| 2026-04-25 11:23 | 28.99079 | -79.27435 | 31005 ft | 471 kts | 53° |
| 2026-04-25 11:24 | 29.00991 | -79.24377 | 31267 ft | 473 kts | 53° |
| 2026-04-25 11:24 | 29.02909 | -79.21308 | 31563 ft | 474 kts | 53° |
| 2026-04-25 11:24 | 29.04830 | -79.18231 | 31821 ft | 476 kts | 53° |
| 2026-04-25 11:24 | 29.06755 | -79.15147 | 32078 ft | 477 kts | 53° |
| 2026-04-25 11:25 | 29.08683 | -79.12054 | 32330 ft | 479 kts | 53° |
| 2026-04-25 11:25 | 29.10599 | -79.08979 | 32558 ft | 480 kts | 53° |
| 2026-04-25 11:25 | 29.12539 | -79.05862 | 32772 ft | 481 kts | 53° |
| 2026-04-25 11:25 | 29.14483 | -79.02738 | 32954 ft | 482 kts | 53° |
| 2026-04-25 11:26 | 29.16427 | -78.99610 | 33134 ft | 483 kts | 53° |
| 2026-04-25 11:26 | 29.18383 | -78.96462 | 33295 ft | 484 kts | 53° |
| 2026-04-25 11:26 | 29.20336 | -78.93315 | 33435 ft | 485 kts | 53° |
| 2026-04-25 11:26 | 29.22292 | -78.90162 | 33607 ft | 485 kts | 54° |
| 2026-04-25 11:27 | 29.24240 | -78.87018 | 33781 ft | 484 kts | 54° |
| 2026-04-25 11:27 | 29.26165 | -78.83910 | 33972 ft | 484 kts | 54° |
| 2026-04-25 11:27 | 29.28108 | -78.80770 | 34124 ft | 483 kts | 54° |
| 2026-04-25 11:27 | 29.29423 | -78.78644 | 34230 ft | 483 kts | 54° |
| 2026-04-25 11:28 | 29.31994 | -78.74484 | 34425 ft | 483 kts | 54° |
| 2026-04-25 11:28 | 29.33929 | -78.71339 | 34550 ft | 483 kts | 54° |
| 2026-04-25 11:28 | 29.35692 | -78.68064 | 34695 ft | 483 kts | 60° |
| 2026-04-25 11:28 | 29.37175 | -78.64625 | 34950 ft | 481 kts | 65° |
| 2026-04-25 11:29 | 29.38395 | -78.61046 | 35078 ft | 482 kts | 70° |
| 2026-04-25 11:29 | 29.39431 | -78.57385 | 35184 ft | 483 kts | 72° |
| 2026-04-25 11:29 | 29.40233 | -78.53627 | 35297 ft | 484 kts | 77° |
| 2026-04-25 11:29 | 29.40754 | -78.49809 | 35423 ft | 485 kts | 81° |
| 2026-04-25 11:30 | 29.41231 | -78.45979 | 35534 ft | 485 kts | 80° |
| 2026-04-25 11:30 | 29.41722 | -78.42146 | 35652 ft | 485 kts | 80° |
| 2026-04-25 11:30 | 29.42216 | -78.38318 | 35778 ft | 485 kts | 80° |
| 2026-04-25 11:30 | 29.42709 | -78.34481 | 35896 ft | 485 kts | 80° |
| 2026-04-25 11:31 | 29.43192 | -78.30698 | 36019 ft | 486 kts | 80° |
| 2026-04-25 11:31 | 29.43680 | -78.26865 | 36125 ft | 486 kts | 80° |
| 2026-04-25 11:31 | 29.44167 | -78.23030 | 36276 ft | 485 kts | 80° |
| 2026-04-25 11:31 | 29.44650 | -78.19202 | 36469 ft | 484 kts | 80° |
| 2026-04-25 11:32 | 29.45132 | -78.15383 | 36647 ft | 483 kts | 80° |
| 2026-04-25 11:32 | 29.45612 | -78.11570 | 36828 ft | 482 kts | 80° |
| 2026-04-25 11:32 | 29.46090 | -78.07759 | 36972 ft | 482 kts | 80° |
| 2026-04-25 11:32 | 29.46568 | -78.03948 | 37118 ft | 483 kts | 80° |
| 2026-04-25 11:33 | 29.47045 | -78.00130 | 37236 ft | 483 kts | 80° |
| 2026-04-25 11:33 | 29.47521 | -77.96314 | 37372 ft | 483 kts | 80° |
| 2026-04-25 11:33 | 29.47996 | -77.92497 | 37508 ft | 483 kts | 80° |
| 2026-04-25 11:33 | 29.48471 | -77.88664 | 37637 ft | 483 kts | 80° |
| 2026-04-25 11:34 | 29.48944 | -77.84843 | 37772 ft | 484 kts | 80° |
| 2026-04-25 11:34 | 29.49416 | -77.81019 | 37916 ft | 483 kts | 80° |
| 2026-04-25 11:34 | 29.49881 | -77.77249 | 38043 ft | 483 kts | 80° |
| 2026-04-25 11:34 | 29.50352 | -77.73416 | 38184 ft | 483 kts | 80° |
| 2026-04-25 11:35 | 29.50820 | -77.69596 | 38325 ft | 483 kts | 80° |
| 2026-04-25 11:35 | 29.51288 | -77.65768 | 38464 ft | 483 kts | 80° |
| 2026-04-25 11:35 | 29.51754 | -77.61950 | 38603 ft | 483 kts | 80° |
| 2026-04-25 11:35 | 29.52218 | -77.58135 | 38723 ft | 483 kts | 80° |
| 2026-04-25 11:36 | 29.52681 | -77.54315 | 38839 ft | 482 kts | 81° |
| 2026-04-25 11:36 | 29.53145 | -77.50488 | 38915 ft | 483 kts | 81° |
| 2026-04-25 11:36 | 29.54064 | -77.42867 | 38997 ft | 486 kts | 81° |
| 2026-04-25 11:37 | 29.54991 | -77.35152 | 39075 ft | 488 kts | 81° |
| 2026-04-25 11:37 | 29.55912 | -77.27443 | 39262 ft | 486 kts | 81° |
| 2026-04-25 11:38 | 29.56828 | -77.19741 | 39445 ft | 486 kts | 81° |
| 2026-04-25 11:38 | 29.57738 | -77.12049 | 39610 ft | 485 kts | 81° |
| 2026-04-25 11:39 | 29.58638 | -77.04402 | 39753 ft | 486 kts | 81° |
| 2026-04-25 11:39 | 29.59540 | -76.96704 | 39898 ft | 486 kts | 81° |
| 2026-04-25 11:40 | 29.60436 | -76.89012 | 40051 ft | 485 kts | 81° |
| 2026-04-25 11:40 | 29.60880 | -76.81265 | 40192 ft | 486 kts | 88° |
| 2026-04-25 11:41 | 29.61042 | -76.73507 | 40345 ft | 486 kts | 88° |
| 2026-04-25 11:41 | 29.61179 | -76.68257 | 40438 ft | 485 kts | 88° |
| 2026-04-25 11:42 | 29.61379 | -76.60550 | 40586 ft | 485 kts | 88° |
| 2026-04-25 11:42 | 29.61578 | -76.52798 | 40736 ft | 485 kts | 88° |
| 2026-04-25 11:43 | 29.61773 | -76.45043 | 40886 ft | 485 kts | 88° |
| 2026-04-25 11:43 | 29.61962 | -76.37305 | 40999 ft | 485 kts | 88° |
| 2026-04-25 11:44 | 29.62149 | -76.29529 | 41002 ft | 488 kts | 88° |
| 2026-04-25 11:44 | 29.62332 | -76.21717 | 41008 ft | 491 kts | 88° |
| 2026-04-25 11:45 | 29.62510 | -76.13896 | 41001 ft | 493 kts | 88° |
| 2026-04-25 11:45 | 29.62686 | -76.05984 | 41001 ft | 495 kts | 88° |
| 2026-04-25 11:46 | 29.62857 | -75.98064 | 41001 ft | 495 kts | 88° |
| 2026-04-25 11:46 | 29.63020 | -75.90187 | 41001 ft | 496 kts | 88° |
| 2026-04-25 11:47 | 29.63178 | -75.82251 | 41004 ft | 496 kts | 88° |
| 2026-04-25 11:47 | 29.63330 | -75.74333 | 40996 ft | 496 kts | 89° |
| 2026-04-25 11:48 | 29.63478 | -75.66399 | 41007 ft | 496 kts | 89° |
| 2026-04-25 11:48 | 29.63622 | -75.58464 | 41008 ft | 496 kts | 89° |
| 2026-04-25 11:49 | 29.63760 | -75.50542 | 41012 ft | 495 kts | 89° |
| 2026-04-25 11:49 | 29.63893 | -75.42677 | 41008 ft | 493 kts | 89° |
| 2026-04-25 11:50 | 29.64021 | -75.34785 | 41006 ft | 494 kts | 89° |
| 2026-04-25 11:50 | 29.64145 | -75.26886 | 41007 ft | 494 kts | 89° |
| 2026-04-25 11:51 | 29.64264 | -75.18979 | 40993 ft | 494 kts | 89° |
| 2026-04-25 11:51 | 29.64379 | -75.11071 | 40991 ft | 494 kts | 89° |
| 2026-04-25 11:52 | 29.64488 | -75.03165 | 40992 ft | 494 kts | 89° |
| 2026-04-25 11:52 | 29.64593 | -74.95265 | 40992 ft | 494 kts | 89° |
| 2026-04-25 11:53 | 29.64693 | -74.87415 | 40989 ft | 494 kts | 89° |
| 2026-04-25 11:53 | 29.64789 | -74.79515 | 40996 ft | 494 kts | 89° |
| 2026-04-25 11:54 | 29.64880 | -74.71607 | 40997 ft | 494 kts | 89° |
| 2026-04-25 11:55 | 29.65008 | -74.59756 | 40999 ft | 494 kts | 89° |
| 2026-04-25 11:55 | 29.65086 | -74.51909 | 41000 ft | 494 kts | 89° |
| 2026-04-25 11:56 | 29.65161 | -74.44008 | 40999 ft | 494 kts | 90° |
| 2026-04-25 11:56 | 29.65231 | -74.36102 | 40996 ft | 494 kts | 90° |
| 2026-04-25 11:57 | 29.65296 | -74.28197 | 40997 ft | 494 kts | 90° |
| 2026-04-25 11:57 | 29.65357 | -74.20285 | 40996 ft | 494 kts | 90° |
| 2026-04-25 11:58 | 29.65413 | -74.12376 | 40999 ft | 494 kts | 90° |
| 2026-04-25 11:58 | 29.65464 | -74.04514 | 40998 ft | 495 kts | 90° |
| 2026-04-25 11:59 | 29.65510 | -73.96604 | 40994 ft | 495 kts | 90° |
| 2026-04-25 11:59 | 29.65552 | -73.88682 | 40991 ft | 495 kts | 90° |
| 2026-04-25 12:00 | 29.65601 | -73.78136 | 40998 ft | 495 kts | 90° |
| 2026-04-25 12:01 | 29.65646 | -73.66246 | 40997 ft | 496 kts | 90° |
| 2026-04-25 12:01 | 29.65669 | -73.58369 | 40995 ft | 496 kts | 90° |
| 2026-04-25 12:02 | 29.65697 | -73.46470 | 40999 ft | 496 kts | 90° |
| 2026-04-25 12:02 | 29.65709 | -73.38531 | 41002 ft | 496 kts | 90° |
| 2026-04-25 12:03 | 29.65716 | -73.30593 | 41000 ft | 497 kts | 90° |
| 2026-04-25 12:03 | 29.65719 | -73.22651 | 41002 ft | 497 kts | 90° |
| 2026-04-25 12:04 | 29.65717 | -73.14700 | 41004 ft | 497 kts | 90° |
| 2026-04-25 12:04 | 29.65710 | -73.06741 | 41005 ft | 497 kts | 90° |
| 2026-04-25 12:05 | 29.65698 | -72.98834 | 41008 ft | 498 kts | 90° |
| 2026-04-25 12:05 | 29.65682 | -72.90855 | 41007 ft | 498 kts | 90° |
| 2026-04-25 12:06 | 29.65661 | -72.82890 | 41010 ft | 498 kts | 90° |
| 2026-04-25 12:06 | 29.65635 | -72.74921 | 41007 ft | 499 kts | 90° |
| 2026-04-25 12:07 | 29.65605 | -72.66940 | 41007 ft | 499 kts | 90° |
| 2026-04-25 12:07 | 29.65569 | -72.58958 | 41008 ft | 499 kts | 90° |
| 2026-04-25 12:08 | 29.65529 | -72.51018 | 41008 ft | 499 kts | 90° |
| 2026-04-25 12:08 | 29.65484 | -72.43021 | 41010 ft | 499 kts | 90° |
| 2026-04-25 12:09 | 29.65435 | -72.35020 | 41009 ft | 500 kts | 90° |
| 2026-04-25 12:09 | 29.65380 | -72.27074 | 41009 ft | 500 kts | 91° |
| 2026-04-25 12:10 | 29.65321 | -72.19066 | 41006 ft | 500 kts | 91° |
| 2026-04-25 12:10 | 29.65256 | -72.11060 | 41011 ft | 500 kts | 91° |
| 2026-04-25 12:11 | 29.65187 | -72.03053 | 41010 ft | 501 kts | 91° |
| 2026-04-25 12:11 | 29.65113 | -71.95047 | 41010 ft | 501 kts | 91° |
| 2026-04-25 12:12 | 29.65048 | -71.88382 | 41013 ft | 501 kts | 91° |
| 2026-04-25 12:12 | 29.64951 | -71.79053 | 41010 ft | 501 kts | 91° |
| 2026-04-25 12:13 | 29.64863 | -71.71023 | 41011 ft | 502 kts | 91° |
| 2026-04-25 12:13 | 29.64769 | -71.62997 | 41007 ft | 502 kts | 91° |
| 2026-04-25 12:14 | 29.64671 | -71.54959 | 41004 ft | 502 kts | 91° |
| 2026-04-25 12:14 | 29.64568 | -71.46916 | 41009 ft | 503 kts | 91° |
| 2026-04-25 12:15 | 29.64459 | -71.38869 | 41013 ft | 503 kts | 91° |
| 2026-04-25 12:15 | 29.64347 | -71.30874 | 41011 ft | 503 kts | 91° |
| 2026-04-25 12:16 | 29.64229 | -71.22821 | 41011 ft | 504 kts | 91° |
| 2026-04-25 12:16 | 29.64106 | -71.14753 | 41010 ft | 504 kts | 91° |
| 2026-04-25 12:17 | 29.63978 | -71.06684 | 41012 ft | 504 kts | 91° |
| 2026-04-25 12:17 | 29.63846 | -70.98658 | 41010 ft | 505 kts | 91° |
| 2026-04-25 12:18 | 29.63708 | -70.90581 | 41012 ft | 505 kts | 91° |
| 2026-04-25 12:18 | 29.63565 | -70.82488 | 41008 ft | 506 kts | 91° |
| 2026-04-25 12:19 | 29.63341 | -70.70351 | 41015 ft | 506 kts | 91° |
| 2026-04-25 12:20 | 29.63186 | -70.62250 | 41015 ft | 507 kts | 91° |
| 2026-04-25 12:20 | 29.63025 | -70.54148 | 41016 ft | 507 kts | 91° |
| 2026-04-25 12:21 | 29.62859 | -70.46030 | 41016 ft | 508 kts | 91° |
| 2026-04-25 12:21 | 29.62690 | -70.37965 | 41018 ft | 508 kts | 92° |
| 2026-04-25 12:22 | 29.62514 | -70.29837 | 41016 ft | 509 kts | 92° |
| 2026-04-25 12:22 | 29.62333 | -70.21702 | 41017 ft | 509 kts | 92° |
| 2026-04-25 12:23 | 29.62147 | -70.13561 | 41016 ft | 509 kts | 92° |
| 2026-04-25 12:23 | 29.61956 | -70.05415 | 41021 ft | 510 kts | 92° |
| 2026-04-25 12:24 | 29.61761 | -69.97308 | 41019 ft | 510 kts | 92° |
| 2026-04-25 12:24 | 29.61559 | -69.89150 | 41019 ft | 511 kts | 92° |
| 2026-04-25 12:25 | 29.61353 | -69.80989 | 41019 ft | 511 kts | 92° |
| 2026-04-25 12:25 | 29.61141 | -69.72802 | 41018 ft | 511 kts | 92° |
| 2026-04-25 12:26 | 29.60926 | -69.64681 | 41019 ft | 512 kts | 92° |
| 2026-04-25 12:26 | 29.60705 | -69.56495 | 40870 ft | 515 kts | 92° |
| 2026-04-25 12:26 | 29.60591 | -69.52378 | 40621 ft | 514 kts | 92° |
| 2026-04-25 12:27 | 29.60475 | -69.48261 | 40381 ft | 516 kts | 92° |
| 2026-04-25 12:27 | 29.60358 | -69.44132 | 40134 ft | 518 kts | 92° |
| 2026-04-25 12:27 | 29.60240 | -69.40004 | 39884 ft | 517 kts | 92° |
| 2026-04-25 12:27 | 29.60121 | -69.35871 | 39656 ft | 516 kts | 92° |
| 2026-04-25 12:28 | 29.60001 | -69.31755 | 39338 ft | 516 kts | 92° |
| 2026-04-25 12:28 | 29.59879 | -69.27639 | 39108 ft | 514 kts | 92° |
| 2026-04-25 12:28 | 29.59757 | -69.23535 | 39048 ft | 513 kts | 92° |
| 2026-04-25 12:29 | 29.59510 | -69.15340 | 39045 ft | 512 kts | 92° |
| 2026-04-25 12:29 | 29.59260 | -69.07201 | 39046 ft | 512 kts | 92° |
| 2026-04-25 12:30 | 29.59002 | -68.99020 | 39046 ft | 512 kts | 92° |
| 2026-04-25 12:30 | 29.58740 | -68.90841 | 39046 ft | 512 kts | 92° |
| 2026-04-25 12:31 | 29.58471 | -68.82632 | 39010 ft | 513 kts | 92° |
| 2026-04-25 12:31 | 29.58199 | -68.74440 | 39006 ft | 514 kts | 92° |
| 2026-04-25 12:32 | 29.57922 | -68.66285 | 39001 ft | 514 kts | 92° |
| 2026-04-25 12:32 | 29.57639 | -68.58074 | 39004 ft | 514 kts | 93° |
| 2026-04-25 12:33 | 29.57350 | -68.49857 | 39005 ft | 515 kts | 93° |
| 2026-04-25 12:33 | 29.57056 | -68.41637 | 39004 ft | 515 kts | 93° |
| 2026-04-25 12:34 | 29.56756 | -68.33406 | 39006 ft | 516 kts | 93° |
| 2026-04-25 12:34 | 29.56452 | -68.25173 | 39004 ft | 516 kts | 93° |
| 2026-04-25 12:35 | 29.56142 | -68.16927 | 39005 ft | 517 kts | 93° |
| 2026-04-25 12:35 | 29.55828 | -68.08724 | 39001 ft | 517 kts | 93° |
| 2026-04-25 12:36 | 29.55507 | -68.00471 | 39004 ft | 517 kts | 93° |
| 2026-04-25 12:36 | 29.55181 | -67.92204 | 39004 ft | 518 kts | 93° |
| 2026-04-25 12:37 | 29.54849 | -67.83936 | 39006 ft | 518 kts | 93° |
| 2026-04-25 12:37 | 29.54515 | -67.75718 | 39006 ft | 518 kts | 94° |
| 2026-04-25 12:38 | 29.54173 | -67.67450 | 39003 ft | 518 kts | 94° |
| 2026-04-25 12:38 | 29.53825 | -67.59175 | 39011 ft | 518 kts | 94° |
| 2026-04-25 12:39 | 29.53473 | -67.50894 | 39013 ft | 518 kts | 94° |
| 2026-04-25 12:39 | 29.53115 | -67.42625 | 39013 ft | 518 kts | 94° |
| 2026-04-25 12:40 | 29.52754 | -67.34389 | 39014 ft | 518 kts | 94° |
| 2026-04-25 12:40 | 29.52387 | -67.26115 | 39008 ft | 519 kts | 94° |
| 2026-04-25 12:41 | 29.52014 | -67.17841 | 39014 ft | 519 kts | 94° |
| 2026-04-25 12:41 | 29.51636 | -67.09569 | 39014 ft | 519 kts | 94° |
| 2026-04-25 12:42 | 29.51253 | -67.01296 | 39009 ft | 519 kts | 94° |
| 2026-04-25 12:42 | 29.50866 | -66.93070 | 39009 ft | 519 kts | 94° |
| 2026-04-25 12:43 | 29.50473 | -66.84796 | 39011 ft | 519 kts | 94° |
| 2026-04-25 12:43 | 29.49874 | -66.72394 | 39013 ft | 519 kts | 94° |
| 2026-04-25 12:44 | 29.49467 | -66.64111 | 39005 ft | 519 kts | 94° |
| 2026-04-25 12:45 | 29.48847 | -66.51690 | 39003 ft | 520 kts | 95° |
| 2026-04-25 12:45 | 29.48218 | -66.39305 | 39005 ft | 520 kts | 95° |
| 2026-04-25 12:46 | 29.47862 | -66.32395 | 39006 ft | 521 kts | 95° |
| 2026-04-25 12:46 | 29.47429 | -66.24086 | 39002 ft | 522 kts | 95° |
| 2026-04-25 12:47 | 29.46990 | -66.15756 | 38998 ft | 523 kts | 95° |
| 2026-04-25 12:47 | 29.46546 | -66.07419 | 39020 ft | 523 kts | 96° |
| 2026-04-25 12:48 | 29.46096 | -65.99072 | 39041 ft | 524 kts | 96° |
| 2026-04-25 12:48 | 29.45642 | -65.90764 | 39052 ft | 525 kts | 96° |
| 2026-04-25 12:49 | 29.45180 | -65.82377 | 39044 ft | 527 kts | 96° |
| 2026-04-25 12:49 | 29.44711 | -65.73979 | 39052 ft | 528 kts | 96° |
| 2026-04-25 12:50 | 29.44235 | -65.65560 | 39052 ft | 529 kts | 97° |
| 2026-04-25 12:50 | 29.43754 | -65.57121 | 39048 ft | 530 kts | 97° |
| 2026-04-25 12:51 | 29.43266 | -65.48659 | 39048 ft | 532 kts | 97° |
| 2026-04-25 12:51 | 29.42771 | -65.40171 | 39043 ft | 534 kts | 98° |
| 2026-04-25 12:52 | 29.42272 | -65.31713 | 39048 ft | 535 kts | 98° |
| 2026-04-25 12:52 | 29.41763 | -65.23178 | 39044 ft | 537 kts | 98° |
| 2026-04-25 12:53 | 29.41246 | -65.14614 | 39050 ft | 538 kts | 99° |
| 2026-04-25 12:53 | 29.40722 | -65.06028 | 39047 ft | 540 kts | 99° |
| 2026-04-25 12:54 | 29.40192 | -64.97426 | 39051 ft | 541 kts | 99° |
| 2026-04-25 12:54 | 29.39655 | -64.88808 | 39051 ft | 542 kts | 99° |
| 2026-04-25 12:55 | 29.39202 | -64.81622 | 39044 ft | 544 kts | 99° |
| 2026-04-25 12:55 | 29.38559 | -64.71493 | 39045 ft | 545 kts | 100° |
| 2026-04-25 12:56 | 29.38005 | -64.62876 | 39052 ft | 547 kts | 100° |
| 2026-04-25 12:56 | 29.37439 | -64.54166 | 39049 ft | 548 kts | 100° |
| 2026-04-25 12:57 | 29.36867 | -64.45442 | 39047 ft | 549 kts | 100° |
| 2026-04-25 12:57 | 29.36287 | -64.36693 | 39048 ft | 551 kts | 100° |
| 2026-04-25 12:58 | 29.35701 | -64.27925 | 39046 ft | 552 kts | 101° |
| 2026-04-25 12:58 | 29.35111 | -64.19191 | 39049 ft | 553 kts | 101° |
| 2026-04-25 12:59 | 29.34511 | -64.10387 | 39048 ft | 554 kts | 101° |
| 2026-04-25 12:59 | 29.33904 | -64.01573 | 39047 ft | 555 kts | 101° |
| 2026-04-25 13:00 | 29.33494 | -63.95672 | 39045 ft | 555 kts | 101° |
| 2026-04-25 13:00 | 29.32670 | -63.83918 | 39049 ft | 556 kts | 101° |
| 2026-04-25 13:01 | 29.32045 | -63.75116 | 39049 ft | 557 kts | 101° |
| 2026-04-25 13:01 | 29.31411 | -63.66266 | 39049 ft | 558 kts | 101° |
| 2026-04-25 13:02 | 29.30769 | -63.57387 | 39050 ft | 558 kts | 101° |
| 2026-04-25 13:02 | 29.30122 | -63.48523 | 39045 ft | 559 kts | 101° |
| 2026-04-25 13:03 | 29.29469 | -63.39645 | 39048 ft | 560 kts | 101° |
| 2026-04-25 13:03 | 29.28807 | -63.30741 | 39051 ft | 560 kts | 101° |
| 2026-04-25 13:04 | 29.28141 | -63.21843 | 39046 ft | 561 kts | 102° |
| 2026-04-25 13:04 | 29.27471 | -63.12990 | 39053 ft | 562 kts | 102° |
| 2026-04-25 13:05 | 29.26789 | -63.04068 | 39053 ft | 563 kts | 102° |
| 2026-04-25 13:05 | 29.26107 | -62.95201 | 39044 ft | 564 kts | 102° |
| 2026-04-25 13:06 | 29.25411 | -62.86232 | 39047 ft | 565 kts | 102° |
| 2026-04-25 13:06 | 29.24708 | -62.77255 | 39052 ft | 566 kts | 102° |
| 2026-04-25 13:07 | 29.23999 | -62.68274 | 39047 ft | 567 kts | 102° |
| 2026-04-25 13:07 | 29.23287 | -62.59336 | 39043 ft | 568 kts | 102° |
| 2026-04-25 13:08 | 29.22562 | -62.50315 | 39054 ft | 568 kts | 102° |
| 2026-04-25 13:08 | 29.21830 | -62.41279 | 39052 ft | 569 kts | 102° |
| 2026-04-25 13:09 | 29.21093 | -62.32250 | 39048 ft | 570 kts | 102° |
| 2026-04-25 13:09 | 29.20347 | -62.23197 | 39048 ft | 571 kts | 102° |
| 2026-04-25 13:10 | 29.19594 | -62.14137 | 39008 ft | 572 kts | 102° |
| 2026-04-25 13:10 | 29.18835 | -62.05071 | 39008 ft | 572 kts | 102° |
| 2026-04-25 13:11 | 29.18073 | -61.96052 | 39004 ft | 573 kts | 102° |
| 2026-04-25 13:11 | 29.17301 | -61.86978 | 39009 ft | 573 kts | 102° |
| 2026-04-25 13:12 | 29.16522 | -61.77902 | 39005 ft | 573 kts | 102° |
| 2026-04-25 13:12 | 29.15870 | -61.70353 | 39005 ft | 573 kts | 102° |
| 2026-04-25 13:13 | 29.14945 | -61.59733 | 39008 ft | 574 kts | 102° |
| 2026-04-25 13:13 | 29.14146 | -61.50647 | 39007 ft | 574 kts | 102° |
| 2026-04-25 13:14 | 29.13342 | -61.41567 | 39015 ft | 574 kts | 102° |
| 2026-04-25 13:14 | 29.12536 | -61.32528 | 39017 ft | 574 kts | 102° |
| 2026-04-25 13:15 | 29.11719 | -61.23437 | 39012 ft | 574 kts | 102° |
| 2026-04-25 13:15 | 29.10896 | -61.14364 | 39014 ft | 574 kts | 102° |
| 2026-04-25 13:16 | 29.10067 | -61.05278 | 39014 ft | 574 kts | 102° |
| 2026-04-25 13:16 | 29.09236 | -60.96240 | 39011 ft | 574 kts | 102° |
| 2026-04-25 13:17 | 29.08398 | -60.87167 | 39013 ft | 574 kts | 102° |
| 2026-04-25 13:17 | 29.07553 | -60.78096 | 39010 ft | 573 kts | 103° |
| 2026-04-25 13:18 | 29.06701 | -60.69032 | 39016 ft | 573 kts | 103° |
| 2026-04-25 13:18 | 29.05846 | -60.59965 | 39014 ft | 573 kts | 103° |
| 2026-04-25 13:19 | 29.04993 | -60.50968 | 39019 ft | 573 kts | 103° |
| 2026-04-25 13:19 | 29.04416 | -60.44915 | 39015 ft | 573 kts | 103° |
| 2026-04-25 13:20 | 29.03260 | -60.32867 | 39014 ft | 573 kts | 103° |
| 2026-04-25 13:20 | 29.02385 | -60.23824 | 39014 ft | 573 kts | 103° |
| 2026-04-25 13:21 | 29.01502 | -60.14769 | 39009 ft | 573 kts | 103° |
| 2026-04-25 13:21 | 29.00613 | -60.05717 | 39008 ft | 573 kts | 103° |
| 2026-04-25 13:22 | 28.99785 | -59.96657 | 39000 ft | 577 kts | 97° |
| 2026-04-25 13:23 | 29.00080 | -59.82876 | 39007 ft | 581 kts | 92° |
| 2026-04-25 13:23 | 29.00262 | -59.73644 | 39004 ft | 581 kts | 94° |
| 2026-04-25 13:24 | 29.00353 | -59.64417 | 39004 ft | 581 kts | 94° |
| 2026-04-25 13:24 | 29.00425 | -59.55197 | 39006 ft | 581 kts | 94° |
| 2026-04-25 13:25 | 29.00492 | -59.45957 | 39002 ft | 581 kts | 94° |
| 2026-04-25 13:25 | 29.00554 | -59.36717 | 39010 ft | 581 kts | 94° |
| 2026-04-25 13:26 | 29.00610 | -59.27533 | 39004 ft | 582 kts | 94° |
| 2026-04-25 13:26 | 29.00660 | -59.18282 | 39006 ft | 582 kts | 94° |
| 2026-04-25 13:27 | 29.00704 | -59.09037 | 39006 ft | 582 kts | 94° |
| 2026-04-25 13:27 | 29.00741 | -58.99789 | 38999 ft | 582 kts | 94° |
| 2026-04-25 13:28 | 29.00772 | -58.90527 | 39001 ft | 583 kts | 94° |
| 2026-04-25 13:28 | 29.00796 | -58.81253 | 39000 ft | 583 kts | 94° |
| 2026-04-25 13:29 | 29.00815 | -58.72049 | 38999 ft | 583 kts | 94° |
| 2026-04-25 13:29 | 29.00827 | -58.62762 | 38996 ft | 583 kts | 94° |
| 2026-04-25 13:30 | 29.00833 | -58.48851 | 39003 ft | 583 kts | 94° |
| 2026-04-25 13:31 | 29.00826 | -58.36499 | 39003 ft | 584 kts | 94° |
| 2026-04-25 13:31 | 29.00811 | -58.25711 | 39003 ft | 584 kts | 94° |
| 2026-04-25 13:32 | 29.00794 | -58.17932 | 39004 ft | 584 kts | 94° |
| 2026-04-25 13:32 | 29.00769 | -58.08645 | 39003 ft | 584 kts | 94° |
| 2026-04-25 13:33 | 29.00738 | -57.99417 | 39005 ft | 584 kts | 94° |
| 2026-04-25 13:33 | 29.00700 | -57.90121 | 39003 ft | 585 kts | 94° |
| 2026-04-25 13:34 | 29.00655 | -57.80819 | 39000 ft | 585 kts | 94° |
| 2026-04-25 13:34 | 29.00605 | -57.71531 | 39004 ft | 585 kts | 94° |
| 2026-04-25 13:35 | 29.00557 | -57.63785 | 39003 ft | 585 kts | 94° |
| 2026-04-25 13:35 | 29.00484 | -57.52987 | 39003 ft | 585 kts | 94° |
| 2026-04-25 13:36 | 29.00414 | -57.43686 | 38998 ft | 585 kts | 94° |
| 2026-04-25 13:36 | 29.00338 | -57.34389 | 39002 ft | 585 kts | 94° |
| 2026-04-25 13:37 | 29.00259 | -57.25530 | 39003 ft | 585 kts | 94° |
| 2026-04-25 13:37 | 29.00168 | -57.16038 | 39003 ft | 585 kts | 94° |
| 2026-04-25 13:38 | 29.00074 | -57.06746 | 39000 ft | 585 kts | 94° |
| 2026-04-25 13:38 | 28.99989 | -56.97505 | 39000 ft | 586 kts | 93° |
| 2026-04-25 13:39 | 29.00215 | -56.88190 | 38996 ft | 587 kts | 90° |
| 2026-04-25 13:39 | 29.00503 | -56.78870 | 39000 ft | 587 kts | 91° |
| 2026-04-25 13:40 | 29.00747 | -56.69547 | 38997 ft | 587 kts | 91° |
| 2026-04-25 13:40 | 29.00971 | -56.60212 | 38997 ft | 587 kts | 91° |
| 2026-04-25 13:41 | 29.01184 | -56.50888 | 38996 ft | 587 kts | 91° |
| 2026-04-25 13:41 | 29.01388 | -56.41619 | 38997 ft | 587 kts | 91° |
| 2026-04-25 13:42 | 29.01586 | -56.32298 | 38999 ft | 587 kts | 91° |
| 2026-04-25 13:42 | 29.01778 | -56.22965 | 38998 ft | 587 kts | 91° |
| 2026-04-25 13:43 | 29.01963 | -56.13638 | 38999 ft | 587 kts | 91° |
| 2026-04-25 13:43 | 29.02142 | -56.04309 | 38998 ft | 587 kts | 91° |
| 2026-04-25 13:44 | 29.02314 | -55.94979 | 38999 ft | 587 kts | 91° |
| 2026-04-25 13:44 | 29.02480 | -55.85651 | 38995 ft | 587 kts | 91° |
| 2026-04-25 13:45 | 29.02639 | -55.76360 | 38995 ft | 587 kts | 91° |
| 2026-04-25 13:45 | 29.02793 | -55.67022 | 38994 ft | 587 kts | 91° |
| 2026-04-25 13:46 | 29.02939 | -55.57697 | 38994 ft | 587 kts | 91° |
| 2026-04-25 13:46 | 29.03080 | -55.48366 | 38996 ft | 587 kts | 91° |
| 2026-04-25 13:47 | 29.03214 | -55.39024 | 38997 ft | 587 kts | 91° |
| 2026-04-25 13:47 | 29.03341 | -55.29747 | 38994 ft | 588 kts | 91° |
| 2026-04-25 13:48 | 29.03462 | -55.20404 | 38992 ft | 588 kts | 91° |
| 2026-04-25 13:48 | 29.03577 | -55.11064 | 38993 ft | 588 kts | 91° |
| 2026-04-25 13:49 | 29.03686 | -55.01699 | 38994 ft | 588 kts | 91° |
| 2026-04-25 13:49 | 29.03788 | -54.92341 | 38994 ft | 588 kts | 91° |
| 2026-04-25 13:50 | 29.03883 | -54.82987 | 38997 ft | 588 kts | 91° |
| 2026-04-25 13:50 | 29.03972 | -54.73700 | 38994 ft | 589 kts | 91° |
| 2026-04-25 13:51 | 29.04054 | -54.64343 | 38994 ft | 589 kts | 91° |
| 2026-04-25 13:51 | 29.04130 | -54.54983 | 38993 ft | 589 kts | 92° |
| 2026-04-25 13:52 | 29.04200 | -54.45627 | 38993 ft | 589 kts | 92° |
| 2026-04-25 13:52 | 29.04276 | -54.36252 | 38991 ft | 589 kts | 91° |
| 2026-04-25 13:53 | 29.04341 | -54.26882 | 38991 ft | 589 kts | 91° |
| 2026-04-25 13:53 | 29.04397 | -54.17506 | 38989 ft | 589 kts | 91° |
| 2026-04-25 13:54 | 29.04432 | -54.08200 | 38987 ft | 589 kts | 92° |
| 2026-04-25 13:54 | 29.04452 | -53.98833 | 38990 ft | 589 kts | 92° |
| 2026-04-25 13:55 | 29.04479 | -53.89460 | 38988 ft | 590 kts | 92° |
| 2026-04-25 13:55 | 29.04503 | -53.80064 | 38992 ft | 590 kts | 92° |
| 2026-04-25 13:56 | 29.04521 | -53.70682 | 38991 ft | 590 kts | 92° |
| 2026-04-25 13:56 | 29.04532 | -53.61298 | 38988 ft | 590 kts | 92° |
| 2026-04-25 13:57 | 29.04536 | -53.51950 | 38991 ft | 591 kts | 92° |
| 2026-04-25 13:57 | 29.04535 | -53.42550 | 38990 ft | 591 kts | 92° |
| 2026-04-25 13:58 | 29.04526 | -53.33141 | 39003 ft | 591 kts | 92° |
| 2026-04-25 13:58 | 29.04511 | -53.23738 | 38993 ft | 591 kts | 92° |
| 2026-04-25 13:59 | 29.04489 | -53.14326 | 38985 ft | 592 kts | 92° |
| 2026-04-25 13:59 | 29.04461 | -53.04927 | 38989 ft | 592 kts | 92° |
| 2026-04-25 14:00 | 29.04433 | -52.97135 | 38996 ft | 592 kts | 92° |
| 2026-04-25 14:00 | 29.04386 | -52.86120 | 38999 ft | 592 kts | 92° |
| 2026-04-25 14:01 | 29.04338 | -52.76754 | 38986 ft | 593 kts | 92° |
| 2026-04-25 14:01 | 29.04283 | -52.67337 | 39002 ft | 593 kts | 92° |
| 2026-04-25 14:02 | 29.04222 | -52.57891 | 38989 ft | 593 kts | 92° |
| 2026-04-25 14:02 | 29.04155 | -52.48508 | 38999 ft | 593 kts | 92° |
| 2026-04-25 14:03 | 29.04081 | -52.39076 | 39005 ft | 593 kts | 92° |
| 2026-04-25 14:03 | 29.04000 | -52.29639 | 38999 ft | 594 kts | 92° |
| 2026-04-25 14:04 | 29.03912 | -52.20199 | 38993 ft | 594 kts | 92° |
| 2026-04-25 14:04 | 29.03818 | -52.10738 | 38998 ft | 595 kts | 92° |
| 2026-04-25 14:05 | 29.03717 | -52.01278 | 39003 ft | 596 kts | 92° |
| 2026-04-25 14:05 | 29.03614 | -51.92138 | 39000 ft | 596 kts | 92° |
| 2026-04-25 14:06 | 29.03499 | -51.82648 | 38999 ft | 596 kts | 92° |
| 2026-04-25 14:06 | 29.03379 | -51.73168 | 39005 ft | 596 kts | 92° |
| 2026-04-25 14:07 | 29.03251 | -51.63690 | 39001 ft | 596 kts | 93° |
| 2026-04-25 14:07 | 29.03118 | -51.54212 | 39003 ft | 596 kts | 93° |
| 2026-04-25 14:08 | 29.02977 | -51.44730 | 38999 ft | 596 kts | 93° |
| 2026-04-25 14:08 | 29.02829 | -51.35245 | 39002 ft | 597 kts | 93° |
| 2026-04-25 14:09 | 29.02675 | -51.25761 | 38994 ft | 597 kts | 93° |
| 2026-04-25 14:09 | 29.02515 | -51.16330 | 39005 ft | 597 kts | 93° |
| 2026-04-25 14:10 | 29.02348 | -51.06841 | 39003 ft | 597 kts | 93° |
| 2026-04-25 14:10 | 29.02173 | -50.97349 | 39007 ft | 598 kts | 93° |
| 2026-04-25 14:11 | 29.01993 | -50.87855 | 39010 ft | 598 kts | 93° |
| 2026-04-25 14:11 | 29.01805 | -50.78353 | 39012 ft | 598 kts | 93° |
| 2026-04-25 14:12 | 29.01610 | -50.68852 | 39004 ft | 598 kts | 93° |
| 2026-04-25 14:12 | 29.01409 | -50.59348 | 39008 ft | 598 kts | 93° |
| 2026-04-25 14:13 | 29.01202 | -50.49887 | 39009 ft | 598 kts | 93° |
| 2026-04-25 14:13 | 29.00987 | -50.40383 | 39006 ft | 598 kts | 93° |
| 2026-04-25 14:14 | 29.00766 | -50.30878 | 39008 ft | 598 kts | 93° |
| 2026-04-25 14:14 | 29.00541 | -50.21373 | 39009 ft | 598 kts | 93° |
| 2026-04-25 14:15 | 29.00314 | -50.11925 | 39011 ft | 598 kts | 93° |
| 2026-04-25 14:15 | 29.00079 | -50.02415 | 39007 ft | 598 kts | 93° |
| 2026-04-25 14:16 | 29.00003 | -49.92911 | 39008 ft | 599 kts | 89° |
| 2026-04-25 14:16 | 29.00204 | -49.84993 | 39009 ft | 599 kts | 89° |
| 2026-04-25 14:17 | 29.00421 | -49.75476 | 39014 ft | 598 kts | 89° |
| 2026-04-25 14:17 | 29.00590 | -49.65961 | 39009 ft | 598 kts | 89° |
| 2026-04-25 14:18 | 29.00740 | -49.56460 | 39013 ft | 598 kts | 89° |
| 2026-04-25 14:18 | 29.00880 | -49.46992 | 39013 ft | 599 kts | 89° |
| 2026-04-25 14:19 | 29.01015 | -49.37481 | 39014 ft | 599 kts | 89° |
| 2026-04-25 14:19 | 29.01144 | -49.27967 | 39019 ft | 599 kts | 89° |
| 2026-04-25 14:20 | 29.01266 | -49.18453 | 39017 ft | 599 kts | 89° |
| 2026-04-25 14:20 | 29.01382 | -49.08934 | 39020 ft | 599 kts | 89° |
| 2026-04-25 14:21 | 29.01489 | -48.99488 | 39019 ft | 599 kts | 89° |
| 2026-04-25 14:21 | 29.01591 | -48.89974 | 39025 ft | 599 kts | 89° |
| 2026-04-25 14:22 | 29.01686 | -48.80466 | 39025 ft | 598 kts | 89° |
| 2026-04-25 14:22 | 29.01775 | -48.70944 | 39027 ft | 598 kts | 89° |
| 2026-04-25 14:23 | 29.01857 | -48.61440 | 39024 ft | 598 kts | 89° |
| 2026-04-25 14:23 | 29.01932 | -48.51927 | 39026 ft | 598 kts | 89° |
| 2026-04-25 14:24 | 29.02000 | -48.42409 | 39029 ft | 598 kts | 89° |
| 2026-04-25 14:24 | 29.02062 | -48.32901 | 39036 ft | 598 kts | 90° |
| 2026-04-25 14:25 | 29.02117 | -48.23439 | 39035 ft | 599 kts | 90° |
| 2026-04-25 14:25 | 29.02165 | -48.13930 | 39038 ft | 598 kts | 90° |
| 2026-04-25 14:26 | 29.02207 | -48.04422 | 39039 ft | 598 kts | 90° |
| 2026-04-25 14:26 | 29.02242 | -47.94903 | 39036 ft | 598 kts | 90° |
| 2026-04-25 14:27 | 29.02270 | -47.85394 | 39036 ft | 598 kts | 90° |
| 2026-04-25 14:27 | 29.02292 | -47.75881 | 39039 ft | 598 kts | 90° |
| 2026-04-25 14:28 | 29.02307 | -47.66421 | 39040 ft | 598 kts | 90° |
| 2026-04-25 14:28 | 29.02315 | -47.56910 | 39041 ft | 598 kts | 90° |
| 2026-04-25 14:29 | 29.02316 | -47.47398 | 39046 ft | 598 kts | 90° |
| 2026-04-25 14:29 | 29.02311 | -47.37877 | 39042 ft | 598 kts | 90° |
| 2026-04-25 14:30 | 29.02299 | -47.28415 | 39045 ft | 598 kts | 90° |
| 2026-04-25 14:30 | 29.02269 | -47.14147 | 39044 ft | 598 kts | 90° |
| 2026-04-25 14:31 | 29.02240 | -47.04644 | 39048 ft | 598 kts | 90° |
| 2026-04-25 14:31 | 29.02205 | -46.95131 | 39050 ft | 598 kts | 90° |
| 2026-04-25 14:32 | 29.02163 | -46.85630 | 39047 ft | 598 kts | 90° |
| 2026-04-25 14:32 | 29.02115 | -46.76188 | 39050 ft | 598 kts | 90° |
| 2026-04-25 14:33 | 29.02059 | -46.66677 | 39058 ft | 598 kts | 90° |
| 2026-04-25 14:33 | 29.01997 | -46.57169 | 39052 ft | 598 kts | 90° |
| 2026-04-25 14:34 | 29.01929 | -46.47656 | 39059 ft | 598 kts | 90° |
| 2026-04-25 14:34 | 29.01853 | -46.38163 | 39062 ft | 598 kts | 90° |
| 2026-04-25 14:35 | 29.01771 | -46.28666 | 39062 ft | 597 kts | 90° |
| 2026-04-25 14:35 | 29.01682 | -46.19167 | 39066 ft | 597 kts | 90° |
| 2026-04-25 14:36 | 29.01588 | -46.09729 | 39058 ft | 597 kts | 90° |
| 2026-04-25 14:36 | 29.01486 | -46.00247 | 39063 ft | 597 kts | 90° |
| 2026-04-25 14:37 | 29.01378 | -45.90762 | 39064 ft | 597 kts | 90° |
| 2026-04-25 14:37 | 29.01262 | -45.81286 | 39067 ft | 596 kts | 90° |
| 2026-04-25 14:38 | 29.01141 | -45.71808 | 39064 ft | 596 kts | 90° |
| 2026-04-25 14:38 | 29.01012 | -45.62332 | 39066 ft | 596 kts | 90° |
| 2026-04-25 14:39 | 29.00877 | -45.52855 | 39071 ft | 596 kts | 90° |
| 2026-04-25 14:39 | 29.00736 | -45.43447 | 39074 ft | 596 kts | 90° |
| 2026-04-25 14:40 | 29.00588 | -45.33971 | 39075 ft | 596 kts | 90° |
| 2026-04-25 14:40 | 29.00433 | -45.24498 | 39068 ft | 595 kts | 90° |
| 2026-04-25 14:41 | 29.00273 | -45.15046 | 39072 ft | 595 kts | 90° |
| 2026-04-25 14:41 | 29.00047 | -45.05643 | 39072 ft | 595 kts | 95° |
| 2026-04-25 14:42 | 28.99289 | -44.99385 | 39073 ft | 594 kts | 103° |
| 2026-04-25 14:42 | 28.97431 | -44.91875 | 39073 ft | 589 kts | 114° |
| 2026-04-25 14:42 | 28.95988 | -44.87501 | 39072 ft | 589 kts | 114° |
| 2026-04-25 14:43 | 28.93163 | -44.78723 | 39072 ft | 589 kts | 114° |
| 2026-04-25 14:43 | 28.90343 | -44.69927 | 39070 ft | 589 kts | 114° |
| 2026-04-25 14:44 | 28.87515 | -44.61148 | 39070 ft | 589 kts | 114° |
| 2026-04-25 14:44 | 28.84679 | -44.52372 | 39070 ft | 590 kts | 114° |
| 2026-04-25 14:45 | 28.81832 | -44.43589 | 39071 ft | 590 kts | 114° |
| 2026-04-25 14:45 | 28.78995 | -44.34858 | 39081 ft | 590 kts | 114° |
| 2026-04-25 14:46 | 28.76135 | -44.26080 | 39068 ft | 590 kts | 114° |
| 2026-04-25 14:46 | 28.73272 | -44.17310 | 39065 ft | 591 kts | 114° |
| 2026-04-25 14:47 | 28.70886 | -44.10023 | 39074 ft | 591 kts | 114° |
| 2026-04-25 14:47 | 28.67521 | -43.99767 | 39081 ft | 591 kts | 114° |
| 2026-04-25 14:48 | 28.64635 | -43.90997 | 39077 ft | 591 kts | 114° |
| 2026-04-25 14:48 | 28.61745 | -43.82236 | 39083 ft | 591 kts | 114° |
| 2026-04-25 14:49 | 28.58846 | -43.73467 | 39079 ft | 591 kts | 114° |
| 2026-04-25 14:49 | 28.55961 | -43.64763 | 39083 ft | 591 kts | 114° |
| 2026-04-25 14:50 | 28.53054 | -43.56013 | 39081 ft | 591 kts | 114° |
| 2026-04-25 14:50 | 28.51598 | -43.51640 | 39076 ft | 591 kts | 114° |
| 2026-04-25 14:52 | 28.41639 | -43.21868 | 39082 ft | 592 kts | 114° |
| 2026-04-25 14:52 | 28.39190 | -43.14587 | 39082 ft | 592 kts | 114° |
| 2026-04-25 14:53 | 28.35744 | -43.04364 | 39084 ft | 592 kts | 114° |
| 2026-04-25 14:53 | 28.32813 | -42.95693 | 39088 ft | 592 kts | 114° |
| 2026-04-25 14:54 | 28.29853 | -42.86957 | 39088 ft | 592 kts | 114° |
| 2026-04-25 14:54 | 28.26891 | -42.78235 | 39088 ft | 592 kts | 114° |
| 2026-04-25 14:55 | 28.23923 | -42.69519 | 39089 ft | 592 kts | 114° |
| 2026-04-25 14:55 | 28.20948 | -42.60802 | 39089 ft | 592 kts | 114° |
| 2026-04-25 14:56 | 28.17990 | -42.52158 | 39084 ft | 592 kts | 114° |
| 2026-04-25 14:56 | 28.15004 | -42.43451 | 39087 ft | 592 kts | 114° |
| 2026-04-25 14:57 | 28.12008 | -42.34735 | 39079 ft | 592 kts | 114° |
| 2026-04-25 14:57 | 28.09012 | -42.26042 | 39083 ft | 593 kts | 114° |
| 2026-04-25 14:58 | 28.06006 | -42.17339 | 39092 ft | 593 kts | 114° |
| 2026-04-25 14:58 | 28.02998 | -42.08652 | 39093 ft | 593 kts | 114° |
| 2026-04-25 14:59 | 27.99925 | -42.00057 | 39091 ft | 591 kts | 118° |
| 2026-04-25 14:59 | 27.96037 | -41.91909 | 39088 ft | 588 kts | 123° |
| 2026-04-25 15:00 | 27.92069 | -41.83822 | 39088 ft | 588 kts | 123° |
| 2026-04-25 15:00 | 27.88103 | -41.75725 | 39089 ft | 588 kts | 123° |
| 2026-04-25 15:01 | 27.84119 | -41.67617 | 39091 ft | 588 kts | 123° |
| 2026-04-25 15:01 | 27.80162 | -41.59584 | 39090 ft | 589 kts | 123° |
| 2026-04-25 15:02 | 27.76148 | -41.51450 | 39091 ft | 589 kts | 123° |
| 2026-04-25 15:02 | 27.72176 | -41.43417 | 39089 ft | 589 kts | 123° |
| 2026-04-25 15:03 | 27.68160 | -41.35310 | 39090 ft | 590 kts | 123° |
| 2026-04-25 15:03 | 27.64167 | -41.27265 | 39089 ft | 590 kts | 123° |
| 2026-04-25 15:04 | 27.60147 | -41.19183 | 39087 ft | 590 kts | 123° |
| 2026-04-25 15:04 | 27.56120 | -41.11098 | 39090 ft | 591 kts | 123° |
| 2026-04-25 15:05 | 27.52092 | -41.03029 | 39093 ft | 591 kts | 123° |
| 2026-04-25 15:06 | 27.46034 | -40.90921 | 39094 ft | 591 kts | 123° |
| 2026-04-25 15:06 | 27.42015 | -40.82908 | 39095 ft | 591 kts | 123° |
| 2026-04-25 15:07 | 27.37966 | -40.74849 | 39096 ft | 592 kts | 123° |
| 2026-04-25 15:07 | 27.33905 | -40.66784 | 39091 ft | 592 kts | 123° |
| 2026-04-25 15:08 | 27.29846 | -40.58734 | 39094 ft | 592 kts | 123° |
| 2026-04-25 15:08 | 27.25778 | -40.50684 | 39093 ft | 592 kts | 123° |
| 2026-04-25 15:09 | 27.21700 | -40.42629 | 39089 ft | 592 kts | 123° |
| 2026-04-25 15:09 | 27.15573 | -40.30553 | 39093 ft | 593 kts | 123° |
| 2026-04-25 15:10 | 27.11501 | -40.22548 | 39092 ft | 593 kts | 123° |
| 2026-04-25 15:11 | 27.05353 | -40.10487 | 39089 ft | 594 kts | 123° |
| 2026-04-25 15:11 | 27.01245 | -40.02444 | 39094 ft | 594 kts | 123° |
| 2026-04-25 15:12 | 26.95325 | -39.90216 | 39092 ft | 596 kts | 120° |
| 2026-04-25 15:12 | 26.92809 | -39.84745 | 39093 ft | 596 kts | 120° |
| 2026-04-25 15:13 | 26.85772 | -39.69670 | 39101 ft | 596 kts | 121° |
| 2026-04-25 15:14 | 26.81911 | -39.61461 | 39093 ft | 596 kts | 121° |
| 2026-04-25 15:14 | 26.78039 | -39.53252 | 39092 ft | 596 kts | 121° |
| 2026-04-25 15:15 | 26.74163 | -39.45053 | 39089 ft | 596 kts | 121° |
| 2026-04-25 15:15 | 26.70281 | -39.36856 | 39087 ft | 596 kts | 121° |
| 2026-04-25 15:16 | 26.66394 | -39.28663 | 39103 ft | 596 kts | 121° |
| 2026-04-25 15:16 | 26.60557 | -39.16392 | 39097 ft | 596 kts | 121° |
| 2026-04-25 15:17 | 26.54731 | -39.04176 | 39092 ft | 596 kts | 121° |
| 2026-04-25 15:18 | 26.50826 | -38.96008 | 39091 ft | 596 kts | 121° |
| 2026-04-25 15:18 | 26.44957 | -38.83761 | 39093 ft | 596 kts | 121° |
| 2026-04-25 15:19 | 26.42363 | -38.78358 | 39086 ft | 596 kts | 121° |
| 2026-04-25 15:19 | 26.37139 | -38.67499 | 39095 ft | 596 kts | 121° |
| 2026-04-25 15:20 | 26.33208 | -38.59346 | 39093 ft | 596 kts | 121° |
| 2026-04-25 15:20 | 26.29293 | -38.51231 | 39093 ft | 596 kts | 121° |
| 2026-04-25 15:21 | 26.25358 | -38.43096 | 39091 ft | 596 kts | 121° |
| 2026-04-25 15:21 | 26.21433 | -38.35004 | 39094 ft | 596 kts | 121° |
| 2026-04-25 15:22 | 26.17492 | -38.26883 | 39093 ft | 596 kts | 121° |
| 2026-04-25 15:22 | 26.13540 | -38.18768 | 39092 ft | 596 kts | 121° |
| 2026-04-25 15:23 | 26.09585 | -38.10658 | 39096 ft | 596 kts | 121° |
| 2026-04-25 15:23 | 26.05624 | -38.02546 | 39097 ft | 596 kts | 121° |
| 2026-04-25 15:24 | 26.01661 | -37.94446 | 39096 ft | 596 kts | 121° |
| 2026-04-25 15:24 | 25.99026 | -37.89068 | 39093 ft | 596 kts | 121° |
| 2026-04-25 15:25 | 25.94378 | -37.79598 | 39091 ft | 596 kts | 121° |
| 2026-04-25 15:25 | 25.89752 | -37.70192 | 39093 ft | 596 kts | 121° |
| 2026-04-25 15:26 | 25.86416 | -37.63419 | 39097 ft | 596 kts | 121° |
| 2026-04-25 15:26 | 25.82458 | -37.55400 | 39097 ft | 596 kts | 121° |
| 2026-04-25 15:27 | 25.78467 | -37.47326 | 39094 ft | 596 kts | 121° |
| 2026-04-25 15:28 | 25.72466 | -37.35216 | 39094 ft | 596 kts | 121° |
| 2026-04-25 15:28 | 25.68483 | -37.27194 | 39096 ft | 596 kts | 121° |
| 2026-04-25 15:29 | 25.64479 | -37.19145 | 39095 ft | 596 kts | 121° |
| 2026-04-25 15:29 | 25.60467 | -37.11095 | 39095 ft | 596 kts | 121° |
| 2026-04-25 15:30 | 25.56481 | -37.03111 | 39097 ft | 595 kts | 121° |
| 2026-04-25 15:30 | 25.52459 | -36.95069 | 39096 ft | 595 kts | 121° |
| 2026-04-25 15:31 | 25.48454 | -36.87075 | 39095 ft | 595 kts | 121° |
| 2026-04-25 15:31 | 25.44450 | -36.79096 | 39095 ft | 595 kts | 121° |
| 2026-04-25 15:32 | 25.40427 | -36.71094 | 39095 ft | 594 kts | 121° |
| 2026-04-25 15:32 | 25.36409 | -36.63115 | 39098 ft | 594 kts | 122° |
| 2026-04-25 15:33 | 25.30367 | -36.51145 | 39097 ft | 594 kts | 122° |
| 2026-04-25 15:33 | 25.26991 | -36.44470 | 39099 ft | 594 kts | 122° |
| 2026-04-25 15:34 | 25.22953 | -36.36497 | 39099 ft | 594 kts | 122° |
| 2026-04-25 15:34 | 25.19592 | -36.29874 | 39092 ft | 594 kts | 122° |
| 2026-04-25 15:35 | 25.12867 | -36.16647 | 39095 ft | 594 kts | 122° |
| 2026-04-25 15:36 | 25.06784 | -36.04713 | 39097 ft | 594 kts | 122° |
| 2026-04-25 15:36 | 25.02727 | -35.96772 | 39099 ft | 593 kts | 122° |
| 2026-04-25 15:37 | 24.98696 | -35.88896 | 39097 ft | 593 kts | 122° |
| 2026-04-25 15:37 | 24.94638 | -35.80980 | 39097 ft | 593 kts | 122° |
| 2026-04-25 15:38 | 24.90570 | -35.73058 | 39098 ft | 593 kts | 122° |
| 2026-04-25 15:38 | 24.86503 | -35.65152 | 39098 ft | 593 kts | 122° |
| 2026-04-25 15:39 | 24.82428 | -35.57242 | 39086 ft | 593 kts | 122° |
| 2026-04-25 15:39 | 24.78355 | -35.49350 | 39088 ft | 592 kts | 122° |
| 2026-04-25 15:40 | 24.74971 | -35.42802 | 39091 ft | 592 kts | 122° |
| 2026-04-25 15:40 | 24.70225 | -35.33636 | 39105 ft | 592 kts | 122° |
| 2026-04-25 15:41 | 24.66146 | -35.25771 | 39097 ft | 591 kts | 122° |
| 2026-04-25 15:41 | 24.62252 | -35.18275 | 39098 ft | 591 kts | 122° |
| 2026-04-25 15:42 | 24.58168 | -35.10427 | 39098 ft | 591 kts | 122° |
| 2026-04-25 15:42 | 24.54088 | -35.02599 | 39102 ft | 590 kts | 122° |
| 2026-04-25 15:43 | 24.50030 | -34.94825 | 39094 ft | 590 kts | 122° |
| 2026-04-25 15:43 | 24.45941 | -34.87006 | 39108 ft | 590 kts | 122° |
| 2026-04-25 15:44 | 24.41856 | -34.79207 | 39104 ft | 589 kts | 122° |
| 2026-04-25 15:44 | 24.37766 | -34.71411 | 39105 ft | 589 kts | 122° |
| 2026-04-25 15:45 | 24.33675 | -34.63625 | 39102 ft | 589 kts | 122° |
| 2026-04-25 15:45 | 24.30270 | -34.57154 | 39100 ft | 589 kts | 122° |
| 2026-04-25 15:46 | 24.25472 | -34.48052 | 39103 ft | 588 kts | 123° |
| 2026-04-25 15:46 | 24.21400 | -34.40339 | 39103 ft | 588 kts | 123° |
| 2026-04-25 15:47 | 24.17297 | -34.32580 | 39105 ft | 588 kts | 123° |
| 2026-04-25 15:47 | 24.13192 | -34.24830 | 39105 ft | 587 kts | 123° |
| 2026-04-25 15:48 | 24.09092 | -34.17097 | 39104 ft | 587 kts | 123° |
| 2026-04-25 15:48 | 24.04990 | -34.09369 | 39103 ft | 587 kts | 123° |
| 2026-04-25 15:49 | 24.00906 | -34.01685 | 39105 ft | 587 kts | 123° |
| 2026-04-25 15:49 | 23.96576 | -33.94125 | 39104 ft | 585 kts | 125° |
| 2026-04-25 15:50 | 23.92263 | -33.86561 | 39103 ft | 585 kts | 125° |
| 2026-04-25 15:50 | 23.87979 | -33.79059 | 39105 ft | 585 kts | 125° |
| 2026-04-25 15:51 | 23.84361 | -33.72752 | 39104 ft | 585 kts | 125° |
| 2026-04-25 15:51 | 23.79321 | -33.63995 | 39105 ft | 584 kts | 125° |
| 2026-04-25 15:52 | 23.74986 | -33.56477 | 39107 ft | 584 kts | 125° |
| 2026-04-25 15:52 | 23.70651 | -33.48971 | 39106 ft | 584 kts | 125° |
| 2026-04-25 15:53 | 23.66344 | -33.41524 | 39104 ft | 584 kts | 125° |
| 2026-04-25 15:53 | 23.62007 | -33.34037 | 39105 ft | 583 kts | 126° |
| 2026-04-25 15:54 | 23.57666 | -33.26555 | 39105 ft | 583 kts | 126° |
| 2026-04-25 15:54 | 23.53329 | -33.19089 | 39105 ft | 583 kts | 126° |
| 2026-04-25 15:55 | 23.48987 | -33.11626 | 39104 ft | 582 kts | 126° |
| 2026-04-25 15:55 | 23.44643 | -33.04171 | 39106 ft | 582 kts | 126° |
| 2026-04-25 15:56 | 23.40333 | -32.96786 | 39121 ft | 581 kts | 126° |
| 2026-04-25 15:56 | 23.35994 | -32.89361 | 39123 ft | 581 kts | 126° |
| 2026-04-25 15:57 | 23.31651 | -32.81940 | 39122 ft | 581 kts | 126° |
| 2026-04-25 15:57 | 23.27308 | -32.74531 | 39121 ft | 580 kts | 126° |
| 2026-04-25 15:58 | 23.22961 | -32.67124 | 39110 ft | 580 kts | 126° |
| 2026-04-25 15:58 | 23.18644 | -32.59779 | 39126 ft | 580 kts | 126° |
| 2026-04-25 15:59 | 23.14299 | -32.52399 | 39123 ft | 579 kts | 126° |
| 2026-04-25 15:59 | 23.09946 | -32.45015 | 39120 ft | 579 kts | 126° |
| 2026-04-25 16:00 | 23.07062 | -32.40127 | 39119 ft | 579 kts | 126° |
| 2026-04-25 16:00 | 23.01246 | -32.30288 | 39096 ft | 579 kts | 126° |
| 2026-04-25 16:01 | 22.96891 | -32.22930 | 39107 ft | 579 kts | 126° |
| 2026-04-25 16:01 | 22.92558 | -32.15623 | 39120 ft | 578 kts | 126° |
| 2026-04-25 16:02 | 22.88203 | -32.08287 | 39116 ft | 578 kts | 126° |
| 2026-04-25 16:02 | 22.83844 | -32.00956 | 39112 ft | 577 kts | 126° |
| 2026-04-25 16:03 | 22.79488 | -31.93640 | 39113 ft | 577 kts | 126° |
| 2026-04-25 16:03 | 22.75159 | -31.86379 | 39115 ft | 576 kts | 126° |
| 2026-04-25 16:04 | 22.70805 | -31.79086 | 39116 ft | 575 kts | 126° |
| 2026-04-25 16:04 | 22.66474 | -31.71842 | 39111 ft | 575 kts | 126° |
| 2026-04-25 16:05 | 22.62116 | -31.64564 | 39108 ft | 575 kts | 126° |
| 2026-04-25 16:06 | 22.55586 | -31.53675 | 39110 ft | 574 kts | 126° |
| 2026-04-25 16:06 | 22.51235 | -31.46433 | 39108 ft | 574 kts | 126° |
| 2026-04-25 16:07 | 22.46885 | -31.39203 | 39105 ft | 573 kts | 126° |
| 2026-04-25 16:07 | 22.42534 | -31.31982 | 39108 ft | 572 kts | 126° |
| 2026-04-25 16:08 | 22.38181 | -31.24766 | 39102 ft | 572 kts | 126° |
| 2026-04-25 16:08 | 22.33858 | -31.17608 | 39104 ft | 572 kts | 126° |
| 2026-04-25 16:09 | 22.29509 | -31.10418 | 39102 ft | 571 kts | 127° |
| 2026-04-25 16:09 | 22.25163 | -31.03243 | 39098 ft | 571 kts | 127° |
| 2026-04-25 16:10 | 22.20811 | -30.96066 | 39102 ft | 570 kts | 127° |
| 2026-04-25 16:10 | 22.16459 | -30.88900 | 39098 ft | 570 kts | 127° |
| 2026-04-25 16:11 | 22.12846 | -30.82960 | 39097 ft | 569 kts | 127° |
| 2026-04-25 16:11 | 22.07796 | -30.74664 | 39104 ft | 569 kts | 127° |
| 2026-04-25 16:12 | 22.03448 | -30.67533 | 39095 ft | 568 kts | 127° |
| 2026-04-25 16:12 | 21.99834 | -30.61615 | 39094 ft | 568 kts | 127° |
| 2026-04-25 16:13 | 21.95485 | -30.54500 | 39102 ft | 568 kts | 127° |
| 2026-04-25 16:13 | 21.91131 | -30.47385 | 39103 ft | 567 kts | 127° |
| 2026-04-25 16:14 | 21.86783 | -30.40290 | 39102 ft | 567 kts | 127° |
| 2026-04-25 16:14 | 21.82459 | -30.33243 | 39096 ft | 567 kts | 127° |
| 2026-04-25 16:15 | 21.78111 | -30.26168 | 39088 ft | 566 kts | 127° |
| 2026-04-25 16:15 | 21.73757 | -30.19091 | 39084 ft | 566 kts | 127° |
| 2026-04-25 16:16 | 21.69407 | -30.12030 | 39086 ft | 565 kts | 127° |
| 2026-04-25 16:16 | 21.65085 | -30.05023 | 39085 ft | 565 kts | 127° |
| 2026-04-25 16:17 | 21.60742 | -29.97990 | 39086 ft | 565 kts | 127° |
| 2026-04-25 16:17 | 21.56393 | -29.90952 | 39081 ft | 564 kts | 127° |
| 2026-04-25 16:18 | 21.52046 | -29.83927 | 39085 ft | 563 kts | 127° |
| 2026-04-25 16:18 | 21.47612 | -29.77012 | 39082 ft | 561 kts | 129° |
| 2026-04-25 16:19 | 21.43095 | -29.70175 | 39077 ft | 561 kts | 129° |
| 2026-04-25 16:19 | 21.38593 | -29.63325 | 39079 ft | 561 kts | 129° |
| 2026-04-25 16:20 | 21.31864 | -29.53133 | 39080 ft | 560 kts | 129° |
| 2026-04-25 16:21 | 21.25092 | -29.42912 | 39078 ft | 560 kts | 129° |
| 2026-04-25 16:21 | 21.20575 | -29.36105 | 39077 ft | 559 kts | 129° |
| 2026-04-25 16:22 | 21.16061 | -29.29309 | 39079 ft | 559 kts | 129° |
| 2026-04-25 16:22 | 21.11550 | -29.22528 | 39067 ft | 558 kts | 129° |
| 2026-04-25 16:23 | 21.07039 | -29.15754 | 39069 ft | 558 kts | 129° |
| 2026-04-25 16:23 | 21.02559 | -29.09035 | 39066 ft | 557 kts | 129° |
| 2026-04-25 16:24 | 20.98051 | -29.02282 | 39066 ft | 557 kts | 129° |
| 2026-04-25 16:24 | 20.93548 | -28.95545 | 39063 ft | 557 kts | 129° |
| 2026-04-25 16:25 | 20.89036 | -28.88801 | 39063 ft | 556 kts | 129° |
| 2026-04-25 16:25 | 20.84532 | -28.82078 | 39065 ft | 556 kts | 129° |
| 2026-04-25 16:26 | 20.80031 | -28.75367 | 39060 ft | 555 kts | 129° |
| 2026-04-25 16:26 | 20.75528 | -28.68661 | 39056 ft | 555 kts | 129° |
| 2026-04-25 16:27 | 20.71023 | -28.61960 | 39057 ft | 555 kts | 129° |
| 2026-04-25 16:27 | 20.66547 | -28.55311 | 39055 ft | 554 kts | 129° |
| 2026-04-25 16:28 | 20.62045 | -28.48629 | 39054 ft | 553 kts | 129° |
| 2026-04-25 16:28 | 20.57545 | -28.41959 | 39050 ft | 553 kts | 129° |
| 2026-04-25 16:29 | 20.53045 | -28.35297 | 39049 ft | 552 kts | 129° |
| 2026-04-25 16:29 | 20.48554 | -28.28655 | 39057 ft | 551 kts | 129° |
| 2026-04-25 16:30 | 20.44068 | -28.22028 | 39049 ft | 551 kts | 129° |
| 2026-04-25 16:30 | 20.39583 | -28.15411 | 39043 ft | 550 kts | 129° |
| 2026-04-25 16:31 | 20.35101 | -28.08805 | 39043 ft | 550 kts | 129° |
| 2026-04-25 16:31 | 20.30642 | -28.02239 | 39039 ft | 551 kts | 129° |
| 2026-04-25 16:32 | 20.26144 | -27.95626 | 39041 ft | 551 kts | 129° |
| 2026-04-25 16:32 | 20.21638 | -27.89009 | 39037 ft | 551 kts | 129° |
| 2026-04-25 16:33 | 20.17134 | -27.82400 | 39037 ft | 550 kts | 129° |
| 2026-04-25 16:33 | 20.12638 | -27.75812 | 39039 ft | 549 kts | 129° |
| 2026-04-25 16:34 | 20.08149 | -27.69239 | 39040 ft | 549 kts | 129° |
| 2026-04-25 16:34 | 20.03658 | -27.62672 | 39036 ft | 548 kts | 129° |
| 2026-04-25 16:35 | 19.99196 | -27.56156 | 39035 ft | 548 kts | 129° |
| 2026-04-25 16:35 | 19.94710 | -27.49611 | 39033 ft | 547 kts | 129° |
| 2026-04-25 16:36 | 19.90222 | -27.43069 | 39027 ft | 546 kts | 129° |
| 2026-04-25 16:36 | 19.85738 | -27.36542 | 39026 ft | 546 kts | 129° |
| 2026-04-25 16:37 | 19.81257 | -27.30025 | 39031 ft | 545 kts | 129° |
| 2026-04-25 16:37 | 19.76815 | -27.23573 | 39026 ft | 545 kts | 129° |
| 2026-04-25 16:38 | 19.72334 | -27.17072 | 39025 ft | 544 kts | 130° |
| 2026-04-25 16:38 | 19.67862 | -27.10589 | 39024 ft | 544 kts | 130° |
| 2026-04-25 16:39 | 19.63391 | -27.04115 | 39024 ft | 543 kts | 130° |
| 2026-04-25 16:39 | 19.58918 | -26.97646 | 39014 ft | 543 kts | 130° |
| 2026-04-25 16:40 | 19.54482 | -26.91237 | 39021 ft | 542 kts | 130° |
| 2026-04-25 16:40 | 19.50012 | -26.84784 | 39020 ft | 541 kts | 130° |
| 2026-04-25 16:41 | 19.45546 | -26.78345 | 39019 ft | 541 kts | 130° |
| 2026-04-25 16:41 | 19.38858 | -26.68716 | 39020 ft | 540 kts | 130° |
| 2026-04-25 16:42 | 19.34400 | -26.62305 | 39014 ft | 540 kts | 130° |
| 2026-04-25 16:42 | 19.29970 | -26.55942 | 39015 ft | 540 kts | 130° |
| 2026-04-25 16:43 | 19.25516 | -26.49551 | 39012 ft | 539 kts | 130° |
| 2026-04-25 16:43 | 19.21054 | -26.43153 | 39010 ft | 539 kts | 130° |
| 2026-04-25 16:44 | 19.16600 | -26.36776 | 39014 ft | 539 kts | 130° |
| 2026-04-25 16:44 | 19.12146 | -26.30404 | 39011 ft | 538 kts | 130° |
| 2026-04-25 16:45 | 19.07723 | -26.24083 | 39011 ft | 538 kts | 130° |
| 2026-04-25 16:45 | 19.03272 | -26.17727 | 39006 ft | 538 kts | 130° |
| 2026-04-25 16:46 | 18.98815 | -26.11367 | 39006 ft | 537 kts | 130° |
| 2026-04-25 16:46 | 18.95837 | -26.07120 | 39007 ft | 537 kts | 130° |
| 2026-04-25 16:47 | 18.89945 | -25.98650 | 39005 ft | 537 kts | 130° |
| 2026-04-25 16:47 | 18.85569 | -25.92321 | 38997 ft | 536 kts | 130° |
| 2026-04-25 16:48 | 18.81159 | -25.85958 | 38999 ft | 536 kts | 130° |
| 2026-04-25 16:48 | 18.76754 | -25.79613 | 39007 ft | 535 kts | 130° |
| 2026-04-25 16:49 | 18.72347 | -25.73273 | 39010 ft | 535 kts | 130° |
| 2026-04-25 16:49 | 18.67944 | -25.66945 | 39010 ft | 535 kts | 130° |
| 2026-04-25 16:50 | 18.63567 | -25.60660 | 38988 ft | 534 kts | 130° |
| 2026-04-25 16:50 | 18.59167 | -25.54349 | 38984 ft | 534 kts | 130° |
| 2026-04-25 16:51 | 18.54765 | -25.48041 | 38997 ft | 534 kts | 130° |
| 2026-04-25 16:51 | 18.51821 | -25.43826 | 39003 ft | 534 kts | 130° |
| 2026-04-25 16:52 | 18.45951 | -25.35430 | 38999 ft | 533 kts | 130° |
| 2026-04-25 16:52 | 18.41550 | -25.29142 | 38992 ft | 533 kts | 130° |
| 2026-04-25 16:53 | 18.34948 | -25.19720 | 38987 ft | 533 kts | 130° |
| 2026-04-25 16:54 | 18.30549 | -25.13451 | 38993 ft | 532 kts | 130° |
| 2026-04-25 16:54 | 18.26180 | -25.07229 | 38985 ft | 532 kts | 130° |
| 2026-04-25 16:55 | 18.21781 | -25.00973 | 38992 ft | 532 kts | 130° |
| 2026-04-25 16:55 | 18.17378 | -24.94715 | 38988 ft | 531 kts | 130° |
| 2026-04-25 16:56 | 18.13722 | -24.89524 | 38985 ft | 531 kts | 130° |
| 2026-04-25 16:56 | 18.09322 | -24.83282 | 38983 ft | 531 kts | 130° |
| 2026-04-25 16:57 | 18.04917 | -24.77039 | 38976 ft | 531 kts | 130° |
| 2026-04-25 16:57 | 18.00513 | -24.70804 | 38982 ft | 530 kts | 130° |
| 2026-04-25 16:58 | 17.96114 | -24.64582 | 38977 ft | 530 kts | 130° |
| 2026-04-25 16:58 | 17.91711 | -24.58359 | 38979 ft | 530 kts | 130° |
| 2026-04-25 16:59 | 17.87309 | -24.52144 | 38971 ft | 530 kts | 130° |
| 2026-04-25 16:59 | 17.82934 | -24.45973 | 38976 ft | 530 kts | 130° |
| 2026-04-25 17:00 | 17.78527 | -24.39763 | 38974 ft | 530 kts | 130° |
| 2026-04-25 17:00 | 17.74115 | -24.33550 | 38974 ft | 530 kts | 130° |
| 2026-04-25 17:01 | 17.69709 | -24.27363 | 38976 ft | 529 kts | 130° |
| 2026-04-25 17:01 | 17.65266 | -24.21199 | 38975 ft | 529 kts | 131° |
| 2026-04-25 17:02 | 17.60822 | -24.15035 | 38968 ft | 529 kts | 131° |
| 2026-04-25 17:02 | 17.56416 | -24.08923 | 38968 ft | 529 kts | 130° |
| 2026-04-25 17:03 | 17.51982 | -24.02776 | 38966 ft | 528 kts | 130° |
| 2026-04-25 17:03 | 17.47546 | -23.96631 | 38961 ft | 528 kts | 131° |
| 2026-04-25 17:04 | 17.43114 | -23.90498 | 38964 ft | 528 kts | 131° |
| 2026-04-25 17:04 | 17.38674 | -23.84359 | 38967 ft | 527 kts | 131° |
| 2026-04-25 17:05 | 17.34240 | -23.78234 | 38963 ft | 527 kts | 131° |
| 2026-04-25 17:05 | 17.27621 | -23.69101 | 38960 ft | 526 kts | 131° |
| 2026-04-25 17:06 | 17.23196 | -23.63003 | 38961 ft | 526 kts | 131° |
| 2026-04-25 17:06 | 17.18773 | -23.56913 | 38953 ft | 525 kts | 131° |
| 2026-04-25 17:07 | 17.14346 | -23.50823 | 38957 ft | 525 kts | 131° |
| 2026-04-25 17:07 | 17.09928 | -23.44750 | 38956 ft | 525 kts | 131° |
| 2026-04-25 17:08 | 17.05505 | -23.38676 | 38955 ft | 524 kts | 131° |
| 2026-04-25 17:08 | 17.01092 | -23.32623 | 38894 ft | 522 kts | 130° |
| 2026-04-25 17:09 | 16.96712 | -23.26623 | 38953 ft | 519 kts | 130° |
| 2026-04-25 17:09 | 16.92331 | -23.20619 | 38951 ft | 519 kts | 130° |
| 2026-04-25 17:10 | 16.87978 | -23.14660 | 38945 ft | 519 kts | 130° |
| 2026-04-25 17:10 | 16.83595 | -23.08667 | 38941 ft | 519 kts | 130° |
| 2026-04-25 17:11 | 16.79214 | -23.02683 | 38940 ft | 518 kts | 130° |
| 2026-04-25 17:11 | 16.75009 | -22.96561 | 38940 ft | 520 kts | 123° |
| 2026-04-25 17:12 | 16.71785 | -22.89774 | 38940 ft | 524 kts | 113° |
| 2026-04-25 17:12 | 16.69320 | -22.82622 | 38939 ft | 524 kts | 111° |
| 2026-04-25 17:13 | 16.67257 | -22.76682 | 38942 ft | 524 kts | 111° |
| 2026-04-25 17:13 | 16.64339 | -22.68321 | 38940 ft | 524 kts | 111° |
| 2026-04-25 17:14 | 16.61858 | -22.61222 | 38942 ft | 524 kts | 111° |
| 2026-04-25 17:14 | 16.59362 | -22.54083 | 38939 ft | 524 kts | 111° |
| 2026-04-25 17:15 | 16.56863 | -22.46945 | 38940 ft | 524 kts | 111° |
| 2026-04-25 17:15 | 16.54359 | -22.39803 | 38938 ft | 524 kts | 111° |
| 2026-04-25 17:16 | 16.51854 | -22.32666 | 38934 ft | 524 kts | 111° |
| 2026-04-25 17:16 | 16.49347 | -22.25532 | 38933 ft | 524 kts | 112° |
| 2026-04-25 17:17 | 16.46839 | -22.18403 | 38935 ft | 524 kts | 112° |
| 2026-04-25 17:17 | 16.44329 | -22.11277 | 38931 ft | 524 kts | 112° |
| 2026-04-25 17:18 | 16.41836 | -22.04210 | 38927 ft | 523 kts | 112° |
| 2026-04-25 17:18 | 16.39320 | -21.97086 | 38924 ft | 523 kts | 112° |
| 2026-04-25 17:19 | 16.36802 | -21.89965 | 38927 ft | 523 kts | 112° |
| 2026-04-25 17:19 | 16.34282 | -21.82844 | 38925 ft | 523 kts | 112° |
| 2026-04-25 17:20 | 16.31756 | -21.75715 | 38929 ft | 526 kts | 112° |
| 2026-04-25 17:20 | 16.29233 | -21.68606 | 38926 ft | 527 kts | 112° |
| 2026-04-25 17:21 | 16.26680 | -21.61453 | 38929 ft | 528 kts | 112° |
| 2026-04-25 17:21 | 16.24105 | -21.54289 | 38926 ft | 528 kts | 112° |
| 2026-04-25 17:22 | 16.21949 | -21.48294 | 38923 ft | 528 kts | 112° |
| 2026-04-25 17:22 | 16.18953 | -21.39964 | 38921 ft | 528 kts | 112° |
| 2026-04-25 17:23 | 16.16373 | -21.32797 | 38922 ft | 528 kts | 112° |
| 2026-04-25 17:23 | 16.13792 | -21.25641 | 38921 ft | 528 kts | 112° |
| 2026-04-25 17:24 | 16.11224 | -21.18527 | 38920 ft | 528 kts | 112° |
| 2026-04-25 17:24 | 16.08639 | -21.11374 | 38924 ft | 528 kts | 112° |
| 2026-04-25 17:25 | 16.06047 | -21.04209 | 38917 ft | 528 kts | 112° |
| 2026-04-25 17:25 | 16.03474 | -20.97108 | 38918 ft | 527 kts | 112° |
| 2026-04-25 17:26 | 16.00887 | -20.89975 | 38916 ft | 527 kts | 112° |
| 2026-04-25 17:26 | 15.98296 | -20.82839 | 38916 ft | 527 kts | 112° |
| 2026-04-25 17:27 | 15.95705 | -20.75712 | 38908 ft | 527 kts | 112° |
| 2026-04-25 17:27 | 15.93971 | -20.70947 | 38907 ft | 527 kts | 112° |
| 2026-04-25 17:28 | 15.90517 | -20.61466 | 38910 ft | 527 kts | 112° |
| 2026-04-25 17:28 | 15.87938 | -20.54396 | 38908 ft | 526 kts | 112° |
| 2026-04-25 17:29 | 15.85337 | -20.47267 | 38907 ft | 526 kts | 112° |
| 2026-04-25 17:29 | 15.82742 | -20.40156 | 38904 ft | 526 kts | 112° |
| 2026-04-25 17:30 | 15.80136 | -20.33052 | 38904 ft | 526 kts | 112° |
| 2026-04-25 17:30 | 15.77552 | -20.26004 | 38904 ft | 526 kts | 112° |
| 2026-04-25 17:31 | 15.74950 | -20.18912 | 38901 ft | 525 kts | 112° |
| 2026-04-25 17:31 | 15.72347 | -20.11826 | 38904 ft | 525 kts | 112° |
| 2026-04-25 17:32 | 15.69744 | -20.04746 | 38894 ft | 525 kts | 112° |
| 2026-04-25 17:32 | 15.67205 | -19.97832 | 38898 ft | 525 kts | 112° |
| 2026-04-25 17:33 | 15.64667 | -19.90709 | 38893 ft | 525 kts | 111° |
| 2026-04-25 17:33 | 15.62144 | -19.83606 | 38897 ft | 524 kts | 111° |
| 2026-04-25 17:34 | 15.59611 | -19.76510 | 38898 ft | 524 kts | 111° |
| 2026-04-25 17:34 | 15.57073 | -19.69421 | 38889 ft | 524 kts | 111° |
| 2026-04-25 17:35 | 15.54535 | -19.62336 | 38895 ft | 524 kts | 111° |
| 2026-04-25 17:35 | 15.52012 | -19.55304 | 38894 ft | 523 kts | 111° |
| 2026-04-25 17:36 | 15.49473 | -19.48232 | 38887 ft | 523 kts | 111° |
| 2026-04-25 17:36 | 15.46928 | -19.41168 | 38884 ft | 522 kts | 112° |
| 2026-04-25 17:37 | 15.43789 | -19.34383 | 38716 ft | 524 kts | 118° |
| 2026-04-25 17:37 | 15.42143 | -19.31013 | 38354 ft | 525 kts | 118° |
| 2026-04-25 17:37 | 15.40498 | -19.27632 | 37948 ft | 525 kts | 118° |
| 2026-04-25 17:38 | 15.38876 | -19.24239 | 37557 ft | 526 kts | 118° |
| 2026-04-25 17:38 | 15.38302 | -19.23102 | 37424 ft | 527 kts | 119° |
| 2026-04-25 17:38 | 15.35449 | -19.17514 | 36786 ft | 529 kts | 118° |
| 2026-04-25 17:38 | 15.33757 | -19.14120 | 36418 ft | 530 kts | 118° |
| 2026-04-25 17:39 | 15.32108 | -19.10752 | 36056 ft | 531 kts | 117° |
| 2026-04-25 17:39 | 15.30455 | -19.07340 | 35689 ft | 524 kts | 117° |
| 2026-04-25 17:39 | 15.28842 | -19.03996 | 35335 ft | 515 kts | 117° |
| 2026-04-25 17:39 | 15.27241 | -19.00675 | 34955 ft | 514 kts | 117° |
| 2026-04-25 17:40 | 15.25633 | -18.97344 | 34498 ft | 518 kts | 116° |
| 2026-04-25 17:40 | 15.24018 | -18.94001 | 34046 ft | 520 kts | 116° |
| 2026-04-25 17:40 | 15.22943 | -18.91777 | 33724 ft | 521 kts | 116° |
| 2026-04-25 17:40 | 15.21319 | -18.88419 | 33210 ft | 521 kts | 116° |
| 2026-04-25 17:41 | 15.19690 | -18.85051 | 32710 ft | 522 kts | 116° |
| 2026-04-25 17:41 | 15.18064 | -18.81692 | 32219 ft | 523 kts | 116° |
| 2026-04-25 17:41 | 15.16429 | -18.78316 | 31733 ft | 524 kts | 116° |
| 2026-04-25 17:41 | 15.14797 | -18.74946 | 31259 ft | 523 kts | 116° |
| 2026-04-25 17:42 | 15.13168 | -18.71586 | 30794 ft | 520 kts | 116° |
| 2026-04-25 17:42 | 15.11549 | -18.68247 | 30326 ft | 516 kts | 116° |
| 2026-04-25 17:42 | 15.09964 | -18.64979 | 29889 ft | 512 kts | 116° |
| 2026-04-25 17:42 | 15.08375 | -18.61704 | 29339 ft | 507 kts | 116° |
| 2026-04-25 17:43 | 15.06800 | -18.58459 | 28815 ft | 501 kts | 116° |
| 2026-04-25 17:43 | 15.05236 | -18.55237 | 28184 ft | 496 kts | 116° |
| 2026-04-25 17:43 | 15.03694 | -18.52063 | 27559 ft | 491 kts | 116° |
| 2026-04-25 17:43 | 15.02168 | -18.48923 | 26970 ft | 484 kts | 116° |
| 2026-04-25 17:44 | 15.00666 | -18.45834 | 26396 ft | 476 kts | 116° |
| 2026-04-25 17:44 | 14.99186 | -18.42793 | 25845 ft | 472 kts | 116° |
| 2026-04-25 17:44 | 14.97718 | -18.39777 | 25311 ft | 467 kts | 116° |
| 2026-04-25 17:44 | 14.96266 | -18.36794 | 24784 ft | 463 kts | 116° |
| 2026-04-25 17:45 | 14.94825 | -18.33835 | 24278 ft | 458 kts | 116° |
| 2026-04-25 17:45 | 14.93878 | -18.31892 | 23947 ft | 455 kts | 116° |
| 2026-04-25 17:45 | 14.92008 | -18.28056 | 23282 ft | 450 kts | 116° |
| 2026-04-25 17:45 | 14.90583 | -18.25131 | 22700 ft | 447 kts | 116° |
| 2026-04-25 17:46 | 14.89189 | -18.22271 | 22138 ft | 443 kts | 117° |
| 2026-04-25 17:46 | 14.87825 | -18.19476 | 21596 ft | 439 kts | 117° |
| 2026-04-25 17:46 | 14.86455 | -18.16669 | 21079 ft | 436 kts | 117° |
| 2026-04-25 17:46 | 14.85091 | -18.13877 | 20557 ft | 433 kts | 117° |
| 2026-04-25 17:47 | 14.83739 | -18.11109 | 20064 ft | 430 kts | 117° |
| 2026-04-25 17:47 | 14.82392 | -18.08353 | 19562 ft | 427 kts | 117° |
| 2026-04-25 17:47 | 14.81055 | -18.05616 | 19077 ft | 425 kts | 118° |
| 2026-04-25 17:47 | 14.79724 | -18.02894 | 18595 ft | 423 kts | 118° |
| 2026-04-25 17:48 | 14.77089 | -17.97507 | 17607 ft | 417 kts | 118° |
| 2026-04-25 17:48 | 14.75785 | -17.94843 | 17089 ft | 412 kts | 118° |
| 2026-04-25 17:48 | 14.74500 | -17.92219 | 16573 ft | 406 kts | 118° |
| 2026-04-25 17:49 | 14.73231 | -17.89630 | 16086 ft | 402 kts | 118° |
| 2026-04-25 17:49 | 14.71984 | -17.87084 | 15612 ft | 391 kts | 118° |
| 2026-04-25 17:49 | 14.70791 | -17.84648 | 15153 ft | 379 kts | 118° |
| 2026-04-25 17:49 | 14.69617 | -17.82253 | 14725 ft | 368 kts | 118° |
| 2026-04-25 17:50 | 14.68477 | -17.79927 | 14298 ft | 358 kts | 119° |
| 2026-04-25 17:50 | 14.67367 | -17.77664 | 13895 ft | 348 kts | 119° |
| 2026-04-25 17:50 | 14.66289 | -17.75468 | 13492 ft | 338 kts | 119° |
| 2026-04-25 17:50 | 14.65243 | -17.73337 | 13066 ft | 328 kts | 119° |
| 2026-04-25 17:51 | 14.64223 | -17.71262 | 12654 ft | 319 kts | 119° |
| 2026-04-25 17:51 | 14.63231 | -17.69245 | 12265 ft | 311 kts | 119° |
| 2026-04-25 17:51 | 14.62245 | -17.67247 | 11888 ft | 313 kts | 119° |
| 2026-04-25 17:51 | 14.61260 | -17.65244 | 11505 ft | 311 kts | 119° |
| 2026-04-25 17:52 | 14.60289 | -17.63270 | 11149 ft | 307 kts | 119° |
| 2026-04-25 17:52 | 14.59649 | -17.61967 | 10904 ft | 306 kts | 119° |
| 2026-04-25 17:52 | 14.58367 | -17.59361 | 10429 ft | 303 kts | 119° |
| 2026-04-25 17:52 | 14.57415 | -17.57425 | 10085 ft | 301 kts | 119° |
| 2026-04-25 17:53 | 14.56471 | -17.55509 | 9734 ft | 298 kts | 119° |
| 2026-04-25 17:53 | 14.55544 | -17.53631 | 9378 ft | 297 kts | 118° |
| 2026-04-25 17:53 | 14.54606 | -17.51729 | 9016 ft | 297 kts | 118° |
| 2026-04-25 17:53 | 14.53667 | -17.49828 | 8652 ft | 297 kts | 118° |
| 2026-04-25 17:54 | 14.52730 | -17.47930 | 8294 ft | 297 kts | 117° |
| 2026-04-25 17:54 | 14.51794 | -17.46034 | 7937 ft | 296 kts | 117° |
| 2026-04-25 17:54 | 14.50860 | -17.44140 | 7590 ft | 296 kts | 117° |
| 2026-04-25 17:54 | 14.49922 | -17.42239 | 7244 ft | 296 kts | 116° |
| 2026-04-25 17:55 | 14.48986 | -17.40346 | 6902 ft | 295 kts | 116° |
| 2026-04-25 17:55 | 14.48053 | -17.38456 | 6559 ft | 295 kts | 116° |
| 2026-04-25 17:55 | 14.47119 | -17.36565 | 6214 ft | 296 kts | 116° |
| 2026-04-25 17:55 | 14.46201 | -17.34706 | 5875 ft | 293 kts | 115° |
| 2026-04-25 17:56 | 14.45277 | -17.32836 | 5523 ft | 290 kts | 115° |
| 2026-04-25 17:56 | 14.44364 | -17.30986 | 5176 ft | 288 kts | 115° |
| 2026-04-25 17:56 | 14.43553 | -17.29344 | 4880 ft | 288 kts | 115° |
| 2026-04-25 17:56 | 14.42646 | -17.27507 | 4546 ft | 286 kts | 115° |
| 2026-04-25 17:57 | 14.41746 | -17.25687 | 4188 ft | 284 kts | 115° |
| 2026-04-25 17:57 | 14.40856 | -17.23880 | 3852 ft | 277 kts | 115° |
| 2026-04-25 17:57 | 14.39999 | -17.22149 | 3536 ft | 264 kts | 114° |
| 2026-04-25 17:57 | 14.39729 | -17.21606 | 3428 ft | 260 kts | 114° |
| 2026-04-25 17:58 | 14.38379 | -17.18885 | 3045 ft | 256 kts | 114° |
| 2026-04-25 17:58 | 14.37722 | -17.17200 | 2997 ft | 250 kts | 100° |
| 2026-04-25 17:58 | 14.37559 | -17.15453 | 2997 ft | 246 kts | 85° |
| 2026-04-25 17:58 | 14.37623 | -17.13689 | 2997 ft | 246 kts | 85° |
| 2026-04-25 17:59 | 14.37671 | -17.11919 | 2991 ft | 246 kts | 85° |
| 2026-04-25 17:59 | 14.37701 | -17.10153 | 2992 ft | 245 kts | 85° |
| 2026-04-25 17:59 | 14.38115 | -17.08482 | 2993 ft | 241 kts | 58° |
| 2026-04-25 17:59 | 14.39229 | -17.07230 | 2990 ft | 236 kts | 31° |
| 2026-04-25 18:00 | 14.40767 | -17.06703 | 2988 ft | 235 kts | 3° |
| 2026-04-25 18:00 | 14.42366 | -17.06778 | 2996 ft | 225 kts | 354° |
| 2026-04-25 18:00 | 14.43875 | -17.06954 | 2994 ft | 221 kts | 353° |
| 2026-04-25 18:00 | 14.45425 | -17.07094 | 2997 ft | 225 kts | 356° |
| 2026-04-25 18:01 | 14.46988 | -17.07169 | 2999 ft | 222 kts | 358° |
| 2026-04-25 18:01 | 14.48545 | -17.07169 | 3000 ft | 226 kts | 0° |
| 2026-04-25 18:01 | 14.50110 | -17.07152 | 2991 ft | 222 kts | 360° |
| 2026-04-25 18:01 | 14.51647 | -17.07140 | 2916 ft | 223 kts | 0° |
| 2026-04-25 18:02 | 14.53179 | -17.07154 | 2614 ft | 212 kts | 359° |
| 2026-04-25 18:02 | 14.54588 | -17.07169 | 2351 ft | 195 kts | 1° |
| 2026-04-25 18:02 | 14.55904 | -17.07176 | 2095 ft | 183 kts | 360° |
| 2026-04-25 18:02 | 14.57138 | -17.07193 | 1881 ft | 169 kts | 1° |
| 2026-04-25 18:03 | 14.58267 | -17.07199 | 1673 ft | 156 kts | 1° |
| 2026-04-25 18:03 | 14.59312 | -17.07212 | 1481 ft | 143 kts | 1° |
| 2026-04-25 18:03 | 14.60252 | -17.07217 | 1293 ft | 126 kts | 1° |
| 2026-04-25 18:03 | 14.61141 | -17.07228 | 1138 ft | 137 kts | 3° |
| 2026-04-25 18:04 | 14.62121 | -17.07232 | 972 ft | 140 kts | 358° |
| 2026-04-25 18:04 | 14.63056 | -17.07257 | 736 ft | 128 kts | 351° |
| 2026-04-25 18:04 | 14.63928 | -17.07268 | 534 ft | 125 kts | 346° |
| 2026-04-25 18:04 | 14.64819 | -17.07277 | 439 ft | 130 kts | 356° |
| 2026-04-25 18:05 | 14.65696 | -17.07267 | 324 ft | 127 kts | 355° |
| 2026-04-25 18:05 | 14.66481 | -17.07285 | 307 ft | 87 kts | 1° |
| 2026-04-25 18:05 | 14.66878 | -17.07283 | 308 ft | 20 kts | 0° |
| 2026-04-25 18:05 | 14.67014 | -17.07283 | 311 ft | 22 kts | 6° |
| 2026-04-25 18:06 | 14.67065 | -17.07248 | 311 ft | 16 kts | 52° |
| 2026-04-25 18:06 | 14.67080 | -17.07151 | 311 ft | 7 kts | 92° |
| 2026-04-25 18:06 | 14.67078 | -17.07086 | 310 ft | 10 kts | 91° |
| 2026-04-25 18:06 | 14.67077 | -17.07002 | 310 ft | 13 kts | 89° |
| 2026-04-25 18:07 | 14.67077 | -17.06900 | 310 ft | 15 kts | 91° |
| 2026-04-25 18:07 | 14.67076 | -17.06860 | 310 ft | 0 kts | 90° |
| 2026-04-25 18:23 | 14.67076 | -17.06861 | 308 ft | 0 kts | 90° |